<?xml version="1.0" encoding="UTF-8" standalone="no" ?>
<gpx xmlns="http://www.topografix.com/GPX/1/1" xmlns:xsi="http://www.w3.org/2001/XMLSchema-instance" xsi:schemaLocation="http://www.topografix.com/GPX/1/1 http://www.topografix.com/GPX/1/1/gpx.xsd" version="1.1" creator="VisuGPX - https://www.visugpx.com">
  <metadata>
    <name>les Aiguiers de Gayéoux et de Travignon</name>
    <desc><![CDATA[Balade au dessus de Saint Saturnin d'Apt pour voir les aiguiers de Grayeoux et de Travignon.]]></desc>
  </metadata>
  <trk>
    <name><![CDATA[2021-05-17 14-22-15]]></name>
    <trkseg>
      <trkpt lat="43.98819" lon="5.39171">
        <ele>964.82</ele>
        <time>2021-05-17T07:39:39Z</time>
      </trkpt>
      <trkpt lat="43.98818" lon="5.39171">
        <ele>965.3</ele>
        <time>2021-05-17T07:39:40Z</time>
      </trkpt>
      <trkpt lat="43.98817" lon="5.3917">
        <ele>965.3</ele>
        <time>2021-05-17T07:40:03Z</time>
      </trkpt>
      <trkpt lat="43.98817" lon="5.39171">
        <ele>964.82</ele>
        <time>2021-05-17T07:40:33Z</time>
      </trkpt>
      <trkpt lat="43.98816" lon="5.3917">
        <ele>965.78</ele>
        <time>2021-05-17T07:41:00Z</time>
      </trkpt>
      <trkpt lat="43.98816" lon="5.39168">
        <ele>965.78</ele>
        <time>2021-05-17T07:41:34Z</time>
      </trkpt>
      <trkpt lat="43.9882" lon="5.39168">
        <ele>965.78</ele>
        <time>2021-05-17T07:41:56Z</time>
      </trkpt>
      <trkpt lat="43.98818" lon="5.39165">
        <ele>965.78</ele>
        <time>2021-05-17T07:42:35Z</time>
      </trkpt>
      <trkpt lat="43.98818" lon="5.39166">
        <ele>965.78</ele>
        <time>2021-05-17T07:43:05Z</time>
      </trkpt>
      <trkpt lat="43.98821" lon="5.39176">
        <ele>965.78</ele>
        <time>2021-05-17T07:43:31Z</time>
      </trkpt>
      <trkpt lat="43.98821" lon="5.3919">
        <ele>965.78</ele>
        <time>2021-05-17T07:43:43Z</time>
      </trkpt>
      <trkpt lat="43.98825" lon="5.39217">
        <ele>968.18</ele>
        <time>2021-05-17T07:44:02Z</time>
      </trkpt>
      <trkpt lat="43.98829" lon="5.3924">
        <ele>968.18</ele>
        <time>2021-05-17T07:44:20Z</time>
      </trkpt>
      <trkpt lat="43.98835" lon="5.39263">
        <ele>969.63</ele>
        <time>2021-05-17T07:44:36Z</time>
      </trkpt>
      <trkpt lat="43.98833" lon="5.39281">
        <ele>970.11</ele>
        <time>2021-05-17T07:44:51Z</time>
      </trkpt>
      <trkpt lat="43.98833" lon="5.39283">
        <ele>970.11</ele>
        <time>2021-05-17T07:44:52Z</time>
      </trkpt>
      <trkpt lat="43.98841" lon="5.39306">
        <ele>971.07</ele>
        <time>2021-05-17T07:45:09Z</time>
      </trkpt>
      <trkpt lat="43.98851" lon="5.39325">
        <ele>972.03</ele>
        <time>2021-05-17T07:45:27Z</time>
      </trkpt>
      <trkpt lat="43.98862" lon="5.39348">
        <ele>972.51</ele>
        <time>2021-05-17T07:45:45Z</time>
      </trkpt>
      <trkpt lat="43.98871" lon="5.3937">
        <ele>972.99</ele>
        <time>2021-05-17T07:46:02Z</time>
      </trkpt>
      <trkpt lat="43.98883" lon="5.39396">
        <ele>973.47</ele>
        <time>2021-05-17T07:46:22Z</time>
      </trkpt>
      <trkpt lat="43.98892" lon="5.39413">
        <ele>975.39</ele>
        <time>2021-05-17T07:46:37Z</time>
      </trkpt>
      <trkpt lat="43.98902" lon="5.39434">
        <ele>975.39</ele>
        <time>2021-05-17T07:46:54Z</time>
      </trkpt>
      <trkpt lat="43.9891" lon="5.39463">
        <ele>976.84</ele>
        <time>2021-05-17T07:47:15Z</time>
      </trkpt>
      <trkpt lat="43.98921" lon="5.39486">
        <ele>977.8</ele>
        <time>2021-05-17T07:47:33Z</time>
      </trkpt>
      <trkpt lat="43.98932" lon="5.39504">
        <ele>978.76</ele>
        <time>2021-05-17T07:47:51Z</time>
      </trkpt>
      <trkpt lat="43.98935" lon="5.39506">
        <ele>978.76</ele>
        <time>2021-05-17T07:47:55Z</time>
      </trkpt>
      <trkpt lat="43.98948" lon="5.39521">
        <ele>980.2</ele>
        <time>2021-05-17T07:48:12Z</time>
      </trkpt>
      <trkpt lat="43.98966" lon="5.39546">
        <ele>980.68</ele>
        <time>2021-05-17T07:48:35Z</time>
      </trkpt>
      <trkpt lat="43.98979" lon="5.39565">
        <ele>981.64</ele>
        <time>2021-05-17T07:48:53Z</time>
      </trkpt>
      <trkpt lat="43.98988" lon="5.39581">
        <ele>982.12</ele>
        <time>2021-05-17T07:49:06Z</time>
      </trkpt>
      <trkpt lat="43.98989" lon="5.39582">
        <ele>982.6</ele>
        <time>2021-05-17T07:49:07Z</time>
      </trkpt>
      <trkpt lat="43.99004" lon="5.39601">
        <ele>982.6</ele>
        <time>2021-05-17T07:49:24Z</time>
      </trkpt>
      <trkpt lat="43.99018" lon="5.39619">
        <ele>983.09</ele>
        <time>2021-05-17T07:49:42Z</time>
      </trkpt>
      <trkpt lat="43.99019" lon="5.3962">
        <ele>983.09</ele>
        <time>2021-05-17T07:49:43Z</time>
      </trkpt>
      <trkpt lat="43.9902" lon="5.39621">
        <ele>983.09</ele>
        <time>2021-05-17T07:49:44Z</time>
      </trkpt>
      <trkpt lat="43.99029" lon="5.39635">
        <ele>982.6</ele>
        <time>2021-05-17T07:50:01Z</time>
      </trkpt>
      <trkpt lat="43.99044" lon="5.3965">
        <ele>983.09</ele>
        <time>2021-05-17T07:50:19Z</time>
      </trkpt>
      <trkpt lat="43.99059" lon="5.39663">
        <ele>982.6</ele>
        <time>2021-05-17T07:50:36Z</time>
      </trkpt>
      <trkpt lat="43.99074" lon="5.39684">
        <ele>982.6</ele>
        <time>2021-05-17T07:50:56Z</time>
      </trkpt>
      <trkpt lat="43.99076" lon="5.39693">
        <ele>983.09</ele>
        <time>2021-05-17T07:51:04Z</time>
      </trkpt>
      <trkpt lat="43.99081" lon="5.39714">
        <ele>984.05</ele>
        <time>2021-05-17T07:51:21Z</time>
      </trkpt>
      <trkpt lat="43.99082" lon="5.39744">
        <ele>985.49</ele>
        <time>2021-05-17T07:51:41Z</time>
      </trkpt>
      <trkpt lat="43.9908" lon="5.39771">
        <ele>987.41</ele>
        <time>2021-05-17T07:52:00Z</time>
      </trkpt>
      <trkpt lat="43.99077" lon="5.39797">
        <ele>987.89</ele>
        <time>2021-05-17T07:52:17Z</time>
      </trkpt>
      <trkpt lat="43.99076" lon="5.3982">
        <ele>988.37</ele>
        <time>2021-05-17T07:52:31Z</time>
      </trkpt>
      <trkpt lat="43.99077" lon="5.39848">
        <ele>989.33</ele>
        <time>2021-05-17T07:52:50Z</time>
      </trkpt>
      <trkpt lat="43.99075" lon="5.3988">
        <ele>989.33</ele>
        <time>2021-05-17T07:53:11Z</time>
      </trkpt>
      <trkpt lat="43.99074" lon="5.39891">
        <ele>990.78</ele>
        <time>2021-05-17T07:53:20Z</time>
      </trkpt>
      <trkpt lat="43.99072" lon="5.39925">
        <ele>991.26</ele>
        <time>2021-05-17T07:53:40Z</time>
      </trkpt>
      <trkpt lat="43.99072" lon="5.39944">
        <ele>990.78</ele>
        <time>2021-05-17T07:53:54Z</time>
      </trkpt>
      <trkpt lat="43.99072" lon="5.39951">
        <ele>990.3</ele>
        <time>2021-05-17T07:53:58Z</time>
      </trkpt>
      <trkpt lat="43.99073" lon="5.39974">
        <ele>990.3</ele>
        <time>2021-05-17T07:54:14Z</time>
      </trkpt>
      <trkpt lat="43.99073" lon="5.39995">
        <ele>990.3</ele>
        <time>2021-05-17T07:54:27Z</time>
      </trkpt>
      <trkpt lat="43.99073" lon="5.39996">
        <ele>990.3</ele>
        <time>2021-05-17T07:54:28Z</time>
      </trkpt>
      <trkpt lat="43.99075" lon="5.40022">
        <ele>988.37</ele>
        <time>2021-05-17T07:54:45Z</time>
      </trkpt>
      <trkpt lat="43.99078" lon="5.40044">
        <ele>986.45</ele>
        <time>2021-05-17T07:55:00Z</time>
      </trkpt>
      <trkpt lat="43.99084" lon="5.40064">
        <ele>985.49</ele>
        <time>2021-05-17T07:55:14Z</time>
      </trkpt>
      <trkpt lat="43.99085" lon="5.4007">
        <ele>984.53</ele>
        <time>2021-05-17T07:55:19Z</time>
      </trkpt>
      <trkpt lat="43.9909" lon="5.40091">
        <ele>983.57</ele>
        <time>2021-05-17T07:55:34Z</time>
      </trkpt>
      <trkpt lat="43.99093" lon="5.40104">
        <ele>982.6</ele>
        <time>2021-05-17T07:55:43Z</time>
      </trkpt>
      <trkpt lat="43.99093" lon="5.40106">
        <ele>982.6</ele>
        <time>2021-05-17T07:55:44Z</time>
      </trkpt>
      <trkpt lat="43.99102" lon="5.40129">
        <ele>982.12</ele>
        <time>2021-05-17T07:56:01Z</time>
      </trkpt>
      <trkpt lat="43.99112" lon="5.4015">
        <ele>981.16</ele>
        <time>2021-05-17T07:56:18Z</time>
      </trkpt>
      <trkpt lat="43.99116" lon="5.40165">
        <ele>980.2</ele>
        <time>2021-05-17T07:56:30Z</time>
      </trkpt>
      <trkpt lat="43.99118" lon="5.40162">
        <ele>980.2</ele>
        <time>2021-05-17T07:56:59Z</time>
      </trkpt>
      <trkpt lat="43.99119" lon="5.40161">
        <ele>980.2</ele>
        <time>2021-05-17T07:57:27Z</time>
      </trkpt>
      <trkpt lat="43.99118" lon="5.40162">
        <ele>979.72</ele>
        <time>2021-05-17T07:57:48Z</time>
      </trkpt>
      <trkpt lat="43.9912" lon="5.40179">
        <ele>979.72</ele>
        <time>2021-05-17T07:58:09Z</time>
      </trkpt>
      <trkpt lat="43.99123" lon="5.40184">
        <ele>979.72</ele>
        <time>2021-05-17T07:58:16Z</time>
      </trkpt>
      <trkpt lat="43.99131" lon="5.40196">
        <ele>978.76</ele>
        <time>2021-05-17T07:58:32Z</time>
      </trkpt>
      <trkpt lat="43.99142" lon="5.40221">
        <ele>977.32</ele>
        <time>2021-05-17T07:58:53Z</time>
      </trkpt>
      <trkpt lat="43.99156" lon="5.40243">
        <ele>976.36</ele>
        <time>2021-05-17T07:59:13Z</time>
      </trkpt>
      <trkpt lat="43.99165" lon="5.40241">
        <ele>976.84</ele>
        <time>2021-05-17T07:59:33Z</time>
      </trkpt>
      <trkpt lat="43.99174" lon="5.40226">
        <ele>978.76</ele>
        <time>2021-05-17T07:59:54Z</time>
      </trkpt>
      <trkpt lat="43.99176" lon="5.4022">
        <ele>981.16</ele>
        <time>2021-05-17T08:00:16Z</time>
      </trkpt>
      <trkpt lat="43.99177" lon="5.40222">
        <ele>981.16</ele>
        <time>2021-05-17T08:00:30Z</time>
      </trkpt>
      <trkpt lat="43.99176" lon="5.4022">
        <ele>980.68</ele>
        <time>2021-05-17T08:00:39Z</time>
      </trkpt>
      <trkpt lat="43.99178" lon="5.40212">
        <ele>981.64</ele>
        <time>2021-05-17T08:01:00Z</time>
      </trkpt>
      <trkpt lat="43.99179" lon="5.40219">
        <ele>981.16</ele>
        <time>2021-05-17T08:01:22Z</time>
      </trkpt>
      <trkpt lat="43.99176" lon="5.40218">
        <ele>981.16</ele>
        <time>2021-05-17T08:01:48Z</time>
      </trkpt>
      <trkpt lat="43.99177" lon="5.40218">
        <ele>981.16</ele>
        <time>2021-05-17T08:02:35Z</time>
      </trkpt>
      <trkpt lat="43.99172" lon="5.40217">
        <ele>981.16</ele>
        <time>2021-05-17T08:03:03Z</time>
      </trkpt>
      <trkpt lat="43.99175" lon="5.40215">
        <ele>981.16</ele>
        <time>2021-05-17T08:03:35Z</time>
      </trkpt>
      <trkpt lat="43.99177" lon="5.40216">
        <ele>981.16</ele>
        <time>2021-05-17T08:03:39Z</time>
      </trkpt>
      <trkpt lat="43.99181" lon="5.40219">
        <ele>981.16</ele>
        <time>2021-05-17T08:04:00Z</time>
      </trkpt>
      <trkpt lat="43.99184" lon="5.40219">
        <ele>981.16</ele>
        <time>2021-05-17T08:04:22Z</time>
      </trkpt>
      <trkpt lat="43.99183" lon="5.40219">
        <ele>981.16</ele>
        <time>2021-05-17T08:04:56Z</time>
      </trkpt>
      <trkpt lat="43.99176" lon="5.40223">
        <ele>981.16</ele>
        <time>2021-05-17T08:05:21Z</time>
      </trkpt>
      <trkpt lat="43.99174" lon="5.40227">
        <ele>981.16</ele>
        <time>2021-05-17T08:05:45Z</time>
      </trkpt>
      <trkpt lat="43.99181" lon="5.40228">
        <ele>981.16</ele>
        <time>2021-05-17T08:06:15Z</time>
      </trkpt>
      <trkpt lat="43.99182" lon="5.40226">
        <ele>981.16</ele>
        <time>2021-05-17T08:06:43Z</time>
      </trkpt>
      <trkpt lat="43.99172" lon="5.40229">
        <ele>981.16</ele>
        <time>2021-05-17T08:07:12Z</time>
      </trkpt>
      <trkpt lat="43.99161" lon="5.40243">
        <ele>976.36</ele>
        <time>2021-05-17T08:07:29Z</time>
      </trkpt>
      <trkpt lat="43.99161" lon="5.40244">
        <ele>976.36</ele>
        <time>2021-05-17T08:07:30Z</time>
      </trkpt>
      <trkpt lat="43.99169" lon="5.40265">
        <ele>975.39</ele>
        <time>2021-05-17T08:07:49Z</time>
      </trkpt>
      <trkpt lat="43.99176" lon="5.40275">
        <ele>974.43</ele>
        <time>2021-05-17T08:08:09Z</time>
      </trkpt>
      <trkpt lat="43.99179" lon="5.4028">
        <ele>974.43</ele>
        <time>2021-05-17T08:08:14Z</time>
      </trkpt>
      <trkpt lat="43.9918" lon="5.40281">
        <ele>974.43</ele>
        <time>2021-05-17T08:08:15Z</time>
      </trkpt>
      <trkpt lat="43.99182" lon="5.40302">
        <ele>972.99</ele>
        <time>2021-05-17T08:08:29Z</time>
      </trkpt>
      <trkpt lat="43.99182" lon="5.40304">
        <ele>972.99</ele>
        <time>2021-05-17T08:08:30Z</time>
      </trkpt>
      <trkpt lat="43.99182" lon="5.40316">
        <ele>972.99</ele>
        <time>2021-05-17T08:08:40Z</time>
      </trkpt>
      <trkpt lat="43.99181" lon="5.40328">
        <ele>973.95</ele>
        <time>2021-05-17T08:08:49Z</time>
      </trkpt>
      <trkpt lat="43.99182" lon="5.40347">
        <ele>974.91</ele>
        <time>2021-05-17T08:09:04Z</time>
      </trkpt>
      <trkpt lat="43.99182" lon="5.40353">
        <ele>974.91</ele>
        <time>2021-05-17T08:09:08Z</time>
      </trkpt>
      <trkpt lat="43.99182" lon="5.40355">
        <ele>974.91</ele>
        <time>2021-05-17T08:09:09Z</time>
      </trkpt>
      <trkpt lat="43.99181" lon="5.40376">
        <ele>974.91</ele>
        <time>2021-05-17T08:09:23Z</time>
      </trkpt>
      <trkpt lat="43.99185" lon="5.40403">
        <ele>974.43</ele>
        <time>2021-05-17T08:09:40Z</time>
      </trkpt>
      <trkpt lat="43.9919" lon="5.40422">
        <ele>974.43</ele>
        <time>2021-05-17T08:09:53Z</time>
      </trkpt>
      <trkpt lat="43.99198" lon="5.40446">
        <ele>975.88</ele>
        <time>2021-05-17T08:10:10Z</time>
      </trkpt>
      <trkpt lat="43.99198" lon="5.40447">
        <ele>975.88</ele>
        <time>2021-05-17T08:10:11Z</time>
      </trkpt>
      <trkpt lat="43.99202" lon="5.40469">
        <ele>976.36</ele>
        <time>2021-05-17T08:10:27Z</time>
      </trkpt>
      <trkpt lat="43.99207" lon="5.40494">
        <ele>974.43</ele>
        <time>2021-05-17T08:10:45Z</time>
      </trkpt>
      <trkpt lat="43.99213" lon="5.4052">
        <ele>974.91</ele>
        <time>2021-05-17T08:11:03Z</time>
      </trkpt>
      <trkpt lat="43.9922" lon="5.4054">
        <ele>974.91</ele>
        <time>2021-05-17T08:11:17Z</time>
      </trkpt>
      <trkpt lat="43.99225" lon="5.40554">
        <ele>974.43</ele>
        <time>2021-05-17T08:11:28Z</time>
      </trkpt>
      <trkpt lat="43.99227" lon="5.40557">
        <ele>974.43</ele>
        <time>2021-05-17T08:11:30Z</time>
      </trkpt>
      <trkpt lat="43.99233" lon="5.40574">
        <ele>973.95</ele>
        <time>2021-05-17T08:11:43Z</time>
      </trkpt>
      <trkpt lat="43.99233" lon="5.40576">
        <ele>973.95</ele>
        <time>2021-05-17T08:11:44Z</time>
      </trkpt>
      <trkpt lat="43.99241" lon="5.40594">
        <ele>972.99</ele>
        <time>2021-05-17T08:11:59Z</time>
      </trkpt>
      <trkpt lat="43.99249" lon="5.40614">
        <ele>972.03</ele>
        <time>2021-05-17T08:12:14Z</time>
      </trkpt>
      <trkpt lat="43.99258" lon="5.40632">
        <ele>972.51</ele>
        <time>2021-05-17T08:12:29Z</time>
      </trkpt>
      <trkpt lat="43.99261" lon="5.40639">
        <ele>972.03</ele>
        <time>2021-05-17T08:12:35Z</time>
      </trkpt>
      <trkpt lat="43.9927" lon="5.40656">
        <ele>972.03</ele>
        <time>2021-05-17T08:12:51Z</time>
      </trkpt>
      <trkpt lat="43.99276" lon="5.40663">
        <ele>971.55</ele>
        <time>2021-05-17T08:13:11Z</time>
      </trkpt>
      <trkpt lat="43.99288" lon="5.40676">
        <ele>971.55</ele>
        <time>2021-05-17T08:13:32Z</time>
      </trkpt>
      <trkpt lat="43.99302" lon="5.4069">
        <ele>972.51</ele>
        <time>2021-05-17T08:13:51Z</time>
      </trkpt>
      <trkpt lat="43.99313" lon="5.40699">
        <ele>972.99</ele>
        <time>2021-05-17T08:14:06Z</time>
      </trkpt>
      <trkpt lat="43.99313" lon="5.40707">
        <ele>972.51</ele>
        <time>2021-05-17T08:14:24Z</time>
      </trkpt>
      <trkpt lat="43.99312" lon="5.40711">
        <ele>972.03</ele>
        <time>2021-05-17T08:14:53Z</time>
      </trkpt>
      <trkpt lat="43.99309" lon="5.40713">
        <ele>972.51</ele>
        <time>2021-05-17T08:15:21Z</time>
      </trkpt>
      <trkpt lat="43.99313" lon="5.40714">
        <ele>972.99</ele>
        <time>2021-05-17T08:15:45Z</time>
      </trkpt>
      <trkpt lat="43.99316" lon="5.40712">
        <ele>972.03</ele>
        <time>2021-05-17T08:16:08Z</time>
      </trkpt>
      <trkpt lat="43.99317" lon="5.40713">
        <ele>972.03</ele>
        <time>2021-05-17T08:16:41Z</time>
      </trkpt>
      <trkpt lat="43.99318" lon="5.40713">
        <ele>972.03</ele>
        <time>2021-05-17T08:17:15Z</time>
      </trkpt>
      <trkpt lat="43.99319" lon="5.40713">
        <ele>972.03</ele>
        <time>2021-05-17T08:17:52Z</time>
      </trkpt>
      <trkpt lat="43.99317" lon="5.40712">
        <ele>972.03</ele>
        <time>2021-05-17T08:19:23Z</time>
      </trkpt>
      <trkpt lat="43.99316" lon="5.40715">
        <ele>972.03</ele>
        <time>2021-05-17T08:21:43Z</time>
      </trkpt>
      <trkpt lat="43.99316" lon="5.40713">
        <ele>972.03</ele>
        <time>2021-05-17T08:23:18Z</time>
      </trkpt>
      <trkpt lat="43.99314" lon="5.40714">
        <ele>972.03</ele>
        <time>2021-05-17T08:23:54Z</time>
      </trkpt>
      <trkpt lat="43.99317" lon="5.40713">
        <ele>972.03</ele>
        <time>2021-05-17T08:24:28Z</time>
      </trkpt>
      <trkpt lat="43.99319" lon="5.40711">
        <ele>972.03</ele>
        <time>2021-05-17T08:25:01Z</time>
      </trkpt>
      <trkpt lat="43.99318" lon="5.40714">
        <ele>972.03</ele>
        <time>2021-05-17T08:25:37Z</time>
      </trkpt>
      <trkpt lat="43.99316" lon="5.40715">
        <ele>972.03</ele>
        <time>2021-05-17T08:26:12Z</time>
      </trkpt>
      <trkpt lat="43.99313" lon="5.40716">
        <ele>972.03</ele>
        <time>2021-05-17T08:26:37Z</time>
      </trkpt>
      <trkpt lat="43.99311" lon="5.40712">
        <ele>972.03</ele>
        <time>2021-05-17T08:27:04Z</time>
      </trkpt>
      <trkpt lat="43.99312" lon="5.40709">
        <ele>972.03</ele>
        <time>2021-05-17T08:27:28Z</time>
      </trkpt>
      <trkpt lat="43.9932" lon="5.40705">
        <ele>972.03</ele>
        <time>2021-05-17T08:27:47Z</time>
      </trkpt>
      <trkpt lat="43.9933" lon="5.40722">
        <ele>972.03</ele>
        <time>2021-05-17T08:28:07Z</time>
      </trkpt>
      <trkpt lat="43.99336" lon="5.40741">
        <ele>972.99</ele>
        <time>2021-05-17T08:28:24Z</time>
      </trkpt>
      <trkpt lat="43.99347" lon="5.40758">
        <ele>973.47</ele>
        <time>2021-05-17T08:28:43Z</time>
      </trkpt>
      <trkpt lat="43.9936" lon="5.40772">
        <ele>973.95</ele>
        <time>2021-05-17T08:29:02Z</time>
      </trkpt>
      <trkpt lat="43.99367" lon="5.40785">
        <ele>974.43</ele>
        <time>2021-05-17T08:29:16Z</time>
      </trkpt>
      <trkpt lat="43.99377" lon="5.40789">
        <ele>974.43</ele>
        <time>2021-05-17T08:29:28Z</time>
      </trkpt>
      <trkpt lat="43.99389" lon="5.40791">
        <ele>975.39</ele>
        <time>2021-05-17T08:29:46Z</time>
      </trkpt>
      <trkpt lat="43.994" lon="5.40801">
        <ele>975.88</ele>
        <time>2021-05-17T08:29:58Z</time>
      </trkpt>
      <trkpt lat="43.99411" lon="5.4081">
        <ele>976.36</ele>
        <time>2021-05-17T08:30:16Z</time>
      </trkpt>
      <trkpt lat="43.99415" lon="5.40815">
        <ele>976.36</ele>
        <time>2021-05-17T08:30:37Z</time>
      </trkpt>
      <trkpt lat="43.99416" lon="5.40816">
        <ele>976.36</ele>
        <time>2021-05-17T08:30:38Z</time>
      </trkpt>
      <trkpt lat="43.99426" lon="5.40828">
        <ele>976.84</ele>
        <time>2021-05-17T08:30:50Z</time>
      </trkpt>
      <trkpt lat="43.99435" lon="5.40838">
        <ele>977.32</ele>
        <time>2021-05-17T08:31:05Z</time>
      </trkpt>
      <trkpt lat="43.99447" lon="5.40848">
        <ele>978.28</ele>
        <time>2021-05-17T08:31:23Z</time>
      </trkpt>
      <trkpt lat="43.99459" lon="5.40858">
        <ele>979.24</ele>
        <time>2021-05-17T08:31:39Z</time>
      </trkpt>
      <trkpt lat="43.99474" lon="5.40873">
        <ele>979.24</ele>
        <time>2021-05-17T08:31:55Z</time>
      </trkpt>
      <trkpt lat="43.99488" lon="5.40889">
        <ele>979.24</ele>
        <time>2021-05-17T08:32:14Z</time>
      </trkpt>
      <trkpt lat="43.99499" lon="5.40902">
        <ele>979.24</ele>
        <time>2021-05-17T08:32:29Z</time>
      </trkpt>
      <trkpt lat="43.99502" lon="5.40902">
        <ele>978.76</ele>
        <time>2021-05-17T08:32:35Z</time>
      </trkpt>
      <trkpt lat="43.9951" lon="5.40922">
        <ele>980.2</ele>
        <time>2021-05-17T08:32:56Z</time>
      </trkpt>
      <trkpt lat="43.99516" lon="5.40931">
        <ele>979.24</ele>
        <time>2021-05-17T08:33:10Z</time>
      </trkpt>
      <trkpt lat="43.99531" lon="5.40945">
        <ele>979.72</ele>
        <time>2021-05-17T08:33:27Z</time>
      </trkpt>
      <trkpt lat="43.99536" lon="5.40949">
        <ele>979.72</ele>
        <time>2021-05-17T08:33:35Z</time>
      </trkpt>
      <trkpt lat="43.99537" lon="5.4095">
        <ele>979.72</ele>
        <time>2021-05-17T08:33:36Z</time>
      </trkpt>
      <trkpt lat="43.99537" lon="5.40951">
        <ele>979.72</ele>
        <time>2021-05-17T08:33:37Z</time>
      </trkpt>
      <trkpt lat="43.99549" lon="5.40967">
        <ele>980.2</ele>
        <time>2021-05-17T08:33:53Z</time>
      </trkpt>
      <trkpt lat="43.99561" lon="5.40978">
        <ele>980.2</ele>
        <time>2021-05-17T08:34:07Z</time>
      </trkpt>
      <trkpt lat="43.99573" lon="5.40992">
        <ele>981.16</ele>
        <time>2021-05-17T08:34:24Z</time>
      </trkpt>
      <trkpt lat="43.99583" lon="5.41007">
        <ele>981.64</ele>
        <time>2021-05-17T08:34:41Z</time>
      </trkpt>
      <trkpt lat="43.99584" lon="5.41009">
        <ele>981.64</ele>
        <time>2021-05-17T08:34:43Z</time>
      </trkpt>
      <trkpt lat="43.99584" lon="5.4101">
        <ele>981.64</ele>
        <time>2021-05-17T08:34:44Z</time>
      </trkpt>
      <trkpt lat="43.99585" lon="5.41011">
        <ele>981.64</ele>
        <time>2021-05-17T08:34:45Z</time>
      </trkpt>
      <trkpt lat="43.99599" lon="5.41026">
        <ele>981.64</ele>
        <time>2021-05-17T08:35:04Z</time>
      </trkpt>
      <trkpt lat="43.99601" lon="5.41029">
        <ele>982.12</ele>
        <time>2021-05-17T08:35:07Z</time>
      </trkpt>
      <trkpt lat="43.99602" lon="5.41029">
        <ele>982.12</ele>
        <time>2021-05-17T08:35:08Z</time>
      </trkpt>
      <trkpt lat="43.99615" lon="5.4104">
        <ele>982.6</ele>
        <time>2021-05-17T08:35:25Z</time>
      </trkpt>
      <trkpt lat="43.99631" lon="5.41055">
        <ele>983.57</ele>
        <time>2021-05-17T08:35:46Z</time>
      </trkpt>
      <trkpt lat="43.99646" lon="5.4107">
        <ele>984.05</ele>
        <time>2021-05-17T08:36:05Z</time>
      </trkpt>
      <trkpt lat="43.9966" lon="5.41079">
        <ele>984.05</ele>
        <time>2021-05-17T08:36:21Z</time>
      </trkpt>
      <trkpt lat="43.99677" lon="5.41097">
        <ele>984.53</ele>
        <time>2021-05-17T08:36:42Z</time>
      </trkpt>
      <trkpt lat="43.99689" lon="5.41108">
        <ele>984.53</ele>
        <time>2021-05-17T08:36:57Z</time>
      </trkpt>
      <trkpt lat="43.99691" lon="5.41109">
        <ele>985.01</ele>
        <time>2021-05-17T08:36:59Z</time>
      </trkpt>
      <trkpt lat="43.99692" lon="5.4111">
        <ele>985.01</ele>
        <time>2021-05-17T08:37:00Z</time>
      </trkpt>
      <trkpt lat="43.997" lon="5.41117">
        <ele>985.49</ele>
        <time>2021-05-17T08:37:10Z</time>
      </trkpt>
      <trkpt lat="43.99716" lon="5.41126">
        <ele>985.97</ele>
        <time>2021-05-17T08:37:27Z</time>
      </trkpt>
      <trkpt lat="43.99731" lon="5.41133">
        <ele>985.97</ele>
        <time>2021-05-17T08:37:42Z</time>
      </trkpt>
      <trkpt lat="43.99748" lon="5.41139">
        <ele>987.41</ele>
        <time>2021-05-17T08:37:59Z</time>
      </trkpt>
      <trkpt lat="43.99755" lon="5.4114">
        <ele>987.41</ele>
        <time>2021-05-17T08:38:07Z</time>
      </trkpt>
      <trkpt lat="43.99769" lon="5.41151">
        <ele>988.37</ele>
        <time>2021-05-17T08:38:23Z</time>
      </trkpt>
      <trkpt lat="43.9977" lon="5.41151">
        <ele>988.37</ele>
        <time>2021-05-17T08:38:24Z</time>
      </trkpt>
      <trkpt lat="43.99772" lon="5.41152">
        <ele>988.37</ele>
        <time>2021-05-17T08:38:26Z</time>
      </trkpt>
      <trkpt lat="43.99773" lon="5.41152">
        <ele>988.85</ele>
        <time>2021-05-17T08:38:27Z</time>
      </trkpt>
      <trkpt lat="43.99779" lon="5.41157">
        <ele>989.33</ele>
        <time>2021-05-17T08:38:34Z</time>
      </trkpt>
      <trkpt lat="43.99793" lon="5.41164">
        <ele>990.3</ele>
        <time>2021-05-17T08:38:50Z</time>
      </trkpt>
      <trkpt lat="43.99805" lon="5.41177">
        <ele>990.78</ele>
        <time>2021-05-17T08:39:06Z</time>
      </trkpt>
      <trkpt lat="43.99806" lon="5.41178">
        <ele>990.78</ele>
        <time>2021-05-17T08:39:07Z</time>
      </trkpt>
      <trkpt lat="43.99819" lon="5.41203">
        <ele>990.78</ele>
        <time>2021-05-17T08:39:29Z</time>
      </trkpt>
      <trkpt lat="43.99829" lon="5.41219">
        <ele>991.26</ele>
        <time>2021-05-17T08:39:45Z</time>
      </trkpt>
      <trkpt lat="43.99843" lon="5.41236">
        <ele>991.26</ele>
        <time>2021-05-17T08:40:03Z</time>
      </trkpt>
      <trkpt lat="43.99858" lon="5.41245">
        <ele>992.22</ele>
        <time>2021-05-17T08:40:20Z</time>
      </trkpt>
      <trkpt lat="43.9986" lon="5.41246">
        <ele>992.7</ele>
        <time>2021-05-17T08:40:22Z</time>
      </trkpt>
      <trkpt lat="43.99869" lon="5.41264">
        <ele>993.66</ele>
        <time>2021-05-17T08:40:39Z</time>
      </trkpt>
      <trkpt lat="43.99871" lon="5.41272">
        <ele>994.14</ele>
        <time>2021-05-17T08:40:45Z</time>
      </trkpt>
      <trkpt lat="43.9987" lon="5.41283">
        <ele>993.18</ele>
        <time>2021-05-17T08:40:54Z</time>
      </trkpt>
      <trkpt lat="43.99861" lon="5.413">
        <ele>993.18</ele>
        <time>2021-05-17T08:41:09Z</time>
      </trkpt>
      <trkpt lat="43.99852" lon="5.41328">
        <ele>992.22</ele>
        <time>2021-05-17T08:41:34Z</time>
      </trkpt>
      <trkpt lat="43.99844" lon="5.4136">
        <ele>992.7</ele>
        <time>2021-05-17T08:42:00Z</time>
      </trkpt>
      <trkpt lat="43.99842" lon="5.41372">
        <ele>992.7</ele>
        <time>2021-05-17T08:42:09Z</time>
      </trkpt>
      <trkpt lat="43.99843" lon="5.41393">
        <ele>993.18</ele>
        <time>2021-05-17T08:42:25Z</time>
      </trkpt>
      <trkpt lat="43.9984" lon="5.41415">
        <ele>993.18</ele>
        <time>2021-05-17T08:42:43Z</time>
      </trkpt>
      <trkpt lat="43.99833" lon="5.41432">
        <ele>994.62</ele>
        <time>2021-05-17T08:42:58Z</time>
      </trkpt>
      <trkpt lat="43.99824" lon="5.41452">
        <ele>994.14</ele>
        <time>2021-05-17T08:43:15Z</time>
      </trkpt>
      <trkpt lat="43.99823" lon="5.41457">
        <ele>994.14</ele>
        <time>2021-05-17T08:43:18Z</time>
      </trkpt>
      <trkpt lat="43.99823" lon="5.41459">
        <ele>994.14</ele>
        <time>2021-05-17T08:43:19Z</time>
      </trkpt>
      <trkpt lat="43.99822" lon="5.41461">
        <ele>994.62</ele>
        <time>2021-05-17T08:43:20Z</time>
      </trkpt>
      <trkpt lat="43.9982" lon="5.4148">
        <ele>993.66</ele>
        <time>2021-05-17T08:43:34Z</time>
      </trkpt>
      <trkpt lat="43.99827" lon="5.41498">
        <ele>994.14</ele>
        <time>2021-05-17T08:43:50Z</time>
      </trkpt>
      <trkpt lat="43.99836" lon="5.41513">
        <ele>994.14</ele>
        <time>2021-05-17T08:44:02Z</time>
      </trkpt>
      <trkpt lat="43.99845" lon="5.41532">
        <ele>994.62</ele>
        <time>2021-05-17T08:44:17Z</time>
      </trkpt>
      <trkpt lat="43.99849" lon="5.41541">
        <ele>995.1</ele>
        <time>2021-05-17T08:44:24Z</time>
      </trkpt>
      <trkpt lat="43.9985" lon="5.41543">
        <ele>995.1</ele>
        <time>2021-05-17T08:44:25Z</time>
      </trkpt>
      <trkpt lat="43.9985" lon="5.41544">
        <ele>995.1</ele>
        <time>2021-05-17T08:44:26Z</time>
      </trkpt>
      <trkpt lat="43.99855" lon="5.41566">
        <ele>995.58</ele>
        <time>2021-05-17T08:44:43Z</time>
      </trkpt>
      <trkpt lat="43.9986" lon="5.41587">
        <ele>995.58</ele>
        <time>2021-05-17T08:44:59Z</time>
      </trkpt>
      <trkpt lat="43.99861" lon="5.41588">
        <ele>995.58</ele>
        <time>2021-05-17T08:45:00Z</time>
      </trkpt>
      <trkpt lat="43.99862" lon="5.41589">
        <ele>995.58</ele>
        <time>2021-05-17T08:45:01Z</time>
      </trkpt>
      <trkpt lat="43.99874" lon="5.41606">
        <ele>995.58</ele>
        <time>2021-05-17T08:45:17Z</time>
      </trkpt>
      <trkpt lat="43.99882" lon="5.41622">
        <ele>995.58</ele>
        <time>2021-05-17T08:45:33Z</time>
      </trkpt>
      <trkpt lat="43.99896" lon="5.41639">
        <ele>995.58</ele>
        <time>2021-05-17T08:45:51Z</time>
      </trkpt>
      <trkpt lat="43.99908" lon="5.41657">
        <ele>994.62</ele>
        <time>2021-05-17T08:46:09Z</time>
      </trkpt>
      <trkpt lat="43.99928" lon="5.41679">
        <ele>994.14</ele>
        <time>2021-05-17T08:46:35Z</time>
      </trkpt>
      <trkpt lat="43.99943" lon="5.41707">
        <ele>991.74</ele>
        <time>2021-05-17T08:46:59Z</time>
      </trkpt>
      <trkpt lat="43.99959" lon="5.41725">
        <ele>989.81</ele>
        <time>2021-05-17T08:47:24Z</time>
      </trkpt>
      <trkpt lat="43.99972" lon="5.41732">
        <ele>988.37</ele>
        <time>2021-05-17T08:47:41Z</time>
      </trkpt>
      <trkpt lat="43.99989" lon="5.41741">
        <ele>987.41</ele>
        <time>2021-05-17T08:47:56Z</time>
      </trkpt>
      <trkpt lat="44.00008" lon="5.41756">
        <ele>985.49</ele>
        <time>2021-05-17T08:48:16Z</time>
      </trkpt>
      <trkpt lat="44.00009" lon="5.41757">
        <ele>985.49</ele>
        <time>2021-05-17T08:48:17Z</time>
      </trkpt>
      <trkpt lat="44.00019" lon="5.41757">
        <ele>984.53</ele>
        <time>2021-05-17T08:48:29Z</time>
      </trkpt>
      <trkpt lat="44.00036" lon="5.4176">
        <ele>983.09</ele>
        <time>2021-05-17T08:48:49Z</time>
      </trkpt>
      <trkpt lat="44.00049" lon="5.41763">
        <ele>982.6</ele>
        <time>2021-05-17T08:49:04Z</time>
      </trkpt>
      <trkpt lat="44.0007" lon="5.41761">
        <ele>980.2</ele>
        <time>2021-05-17T08:49:27Z</time>
      </trkpt>
      <trkpt lat="44.00095" lon="5.41768">
        <ele>978.28</ele>
        <time>2021-05-17T08:49:49Z</time>
      </trkpt>
      <trkpt lat="44.00105" lon="5.41783">
        <ele>977.32</ele>
        <time>2021-05-17T08:50:03Z</time>
      </trkpt>
      <trkpt lat="44.00109" lon="5.41792">
        <ele>977.32</ele>
        <time>2021-05-17T08:50:10Z</time>
      </trkpt>
      <trkpt lat="44.00109" lon="5.41794">
        <ele>977.32</ele>
        <time>2021-05-17T08:50:11Z</time>
      </trkpt>
      <trkpt lat="44.0011" lon="5.41795">
        <ele>977.32</ele>
        <time>2021-05-17T08:50:12Z</time>
      </trkpt>
      <trkpt lat="44.0011" lon="5.41797">
        <ele>976.84</ele>
        <time>2021-05-17T08:50:13Z</time>
      </trkpt>
      <trkpt lat="44.0011" lon="5.41799">
        <ele>976.84</ele>
        <time>2021-05-17T08:50:14Z</time>
      </trkpt>
      <trkpt lat="44.00116" lon="5.41815">
        <ele>977.32</ele>
        <time>2021-05-17T08:50:26Z</time>
      </trkpt>
      <trkpt lat="44.00113" lon="5.41839">
        <ele>977.32</ele>
        <time>2021-05-17T08:50:47Z</time>
      </trkpt>
      <trkpt lat="44.00116" lon="5.41849">
        <ele>977.32</ele>
        <time>2021-05-17T08:51:05Z</time>
      </trkpt>
      <trkpt lat="44.00116" lon="5.4185">
        <ele>976.84</ele>
        <time>2021-05-17T08:51:40Z</time>
      </trkpt>
      <trkpt lat="44.00119" lon="5.41848">
        <ele>976.84</ele>
        <time>2021-05-17T08:52:17Z</time>
      </trkpt>
      <trkpt lat="44.00118" lon="5.41845">
        <ele>976.84</ele>
        <time>2021-05-17T08:52:46Z</time>
      </trkpt>
      <trkpt lat="44.00114" lon="5.41845">
        <ele>976.84</ele>
        <time>2021-05-17T08:53:04Z</time>
      </trkpt>
      <trkpt lat="44.00112" lon="5.41848">
        <ele>976.84</ele>
        <time>2021-05-17T08:53:33Z</time>
      </trkpt>
      <trkpt lat="44.00096" lon="5.41857">
        <ele>976.84</ele>
        <time>2021-05-17T08:53:52Z</time>
      </trkpt>
      <trkpt lat="44.00085" lon="5.41864">
        <ele>976.84</ele>
        <time>2021-05-17T08:54:09Z</time>
      </trkpt>
      <trkpt lat="44.00079" lon="5.41872">
        <ele>973.47</ele>
        <time>2021-05-17T08:54:18Z</time>
      </trkpt>
      <trkpt lat="44.00068" lon="5.41895">
        <ele>972.03</ele>
        <time>2021-05-17T08:54:40Z</time>
      </trkpt>
      <trkpt lat="44.00054" lon="5.41915">
        <ele>970.59</ele>
        <time>2021-05-17T08:54:59Z</time>
      </trkpt>
      <trkpt lat="44.00041" lon="5.41938">
        <ele>969.15</ele>
        <time>2021-05-17T08:55:19Z</time>
      </trkpt>
      <trkpt lat="44.00027" lon="5.41959">
        <ele>967.7</ele>
        <time>2021-05-17T08:55:39Z</time>
      </trkpt>
      <trkpt lat="44.00016" lon="5.41965">
        <ele>968.18</ele>
        <time>2021-05-17T08:55:50Z</time>
      </trkpt>
      <trkpt lat="44.00004" lon="5.41972">
        <ele>968.18</ele>
        <time>2021-05-17T08:56:05Z</time>
      </trkpt>
      <trkpt lat="43.99992" lon="5.41977">
        <ele>968.18</ele>
        <time>2021-05-17T08:56:18Z</time>
      </trkpt>
      <trkpt lat="43.99973" lon="5.41985">
        <ele>968.67</ele>
        <time>2021-05-17T08:56:37Z</time>
      </trkpt>
      <trkpt lat="43.99949" lon="5.41991">
        <ele>969.15</ele>
        <time>2021-05-17T08:57:01Z</time>
      </trkpt>
      <trkpt lat="43.99938" lon="5.41993">
        <ele>968.67</ele>
        <time>2021-05-17T08:57:10Z</time>
      </trkpt>
      <trkpt lat="43.99926" lon="5.42003">
        <ele>970.59</ele>
        <time>2021-05-17T08:57:26Z</time>
      </trkpt>
      <trkpt lat="43.99921" lon="5.42008">
        <ele>969.63</ele>
        <time>2021-05-17T08:57:38Z</time>
      </trkpt>
      <trkpt lat="43.99912" lon="5.42019">
        <ele>970.59</ele>
        <time>2021-05-17T08:58:00Z</time>
      </trkpt>
      <trkpt lat="43.99902" lon="5.42025">
        <ele>972.03</ele>
        <time>2021-05-17T08:58:13Z</time>
      </trkpt>
      <trkpt lat="43.99885" lon="5.4204">
        <ele>972.99</ele>
        <time>2021-05-17T08:58:30Z</time>
      </trkpt>
      <trkpt lat="43.99863" lon="5.42055">
        <ele>974.43</ele>
        <time>2021-05-17T08:58:55Z</time>
      </trkpt>
      <trkpt lat="43.99842" lon="5.42064">
        <ele>975.39</ele>
        <time>2021-05-17T08:59:17Z</time>
      </trkpt>
      <trkpt lat="43.99832" lon="5.4207">
        <ele>975.39</ele>
        <time>2021-05-17T08:59:27Z</time>
      </trkpt>
      <trkpt lat="43.99823" lon="5.42074">
        <ele>975.88</ele>
        <time>2021-05-17T08:59:39Z</time>
      </trkpt>
      <trkpt lat="43.99805" lon="5.42084">
        <ele>976.84</ele>
        <time>2021-05-17T08:59:58Z</time>
      </trkpt>
      <trkpt lat="43.99789" lon="5.42092">
        <ele>977.32</ele>
        <time>2021-05-17T09:00:15Z</time>
      </trkpt>
      <trkpt lat="43.99779" lon="5.42091">
        <ele>977.32</ele>
        <time>2021-05-17T09:00:27Z</time>
      </trkpt>
      <trkpt lat="43.9976" lon="5.42103">
        <ele>977.32</ele>
        <time>2021-05-17T09:00:48Z</time>
      </trkpt>
      <trkpt lat="43.99745" lon="5.42118">
        <ele>977.8</ele>
        <time>2021-05-17T09:01:07Z</time>
      </trkpt>
      <trkpt lat="43.99737" lon="5.42151">
        <ele>977.8</ele>
        <time>2021-05-17T09:01:28Z</time>
      </trkpt>
      <trkpt lat="43.99735" lon="5.42154">
        <ele>977.8</ele>
        <time>2021-05-17T09:01:31Z</time>
      </trkpt>
      <trkpt lat="43.9973" lon="5.42164">
        <ele>977.8</ele>
        <time>2021-05-17T09:01:42Z</time>
      </trkpt>
      <trkpt lat="43.99726" lon="5.42186">
        <ele>977.32</ele>
        <time>2021-05-17T09:01:59Z</time>
      </trkpt>
      <trkpt lat="43.99723" lon="5.42195">
        <ele>976.84</ele>
        <time>2021-05-17T09:02:14Z</time>
      </trkpt>
      <trkpt lat="43.99722" lon="5.42198">
        <ele>976.84</ele>
        <time>2021-05-17T09:02:29Z</time>
      </trkpt>
      <trkpt lat="43.9972" lon="5.42192">
        <ele>976.84</ele>
        <time>2021-05-17T09:02:45Z</time>
      </trkpt>
      <trkpt lat="43.99706" lon="5.42182">
        <ele>976.84</ele>
        <time>2021-05-17T09:03:06Z</time>
      </trkpt>
      <trkpt lat="43.99699" lon="5.42181">
        <ele>976.84</ele>
        <time>2021-05-17T09:03:26Z</time>
      </trkpt>
      <trkpt lat="43.99692" lon="5.42181">
        <ele>976.84</ele>
        <time>2021-05-17T09:03:40Z</time>
      </trkpt>
      <trkpt lat="43.99689" lon="5.42179">
        <ele>975.39</ele>
        <time>2021-05-17T09:03:48Z</time>
      </trkpt>
      <trkpt lat="43.99683" lon="5.42174">
        <ele>974.43</ele>
        <time>2021-05-17T09:04:11Z</time>
      </trkpt>
      <trkpt lat="43.99682" lon="5.42174">
        <ele>972.99</ele>
        <time>2021-05-17T09:04:35Z</time>
      </trkpt>
      <trkpt lat="43.99681" lon="5.42178">
        <ele>973.47</ele>
        <time>2021-05-17T09:05:04Z</time>
      </trkpt>
      <trkpt lat="43.9968" lon="5.42183">
        <ele>972.99</ele>
        <time>2021-05-17T09:05:30Z</time>
      </trkpt>
      <trkpt lat="43.99686" lon="5.42181">
        <ele>974.43</ele>
        <time>2021-05-17T09:05:55Z</time>
      </trkpt>
      <trkpt lat="43.99693" lon="5.42185">
        <ele>975.39</ele>
        <time>2021-05-17T09:06:16Z</time>
      </trkpt>
      <trkpt lat="43.99706" lon="5.42183">
        <ele>976.36</ele>
        <time>2021-05-17T09:06:38Z</time>
      </trkpt>
      <trkpt lat="43.99717" lon="5.42187">
        <ele>976.84</ele>
        <time>2021-05-17T09:07:01Z</time>
      </trkpt>
      <trkpt lat="43.99726" lon="5.42201">
        <ele>976.36</ele>
        <time>2021-05-17T09:07:22Z</time>
      </trkpt>
      <trkpt lat="43.99729" lon="5.42206">
        <ele>976.84</ele>
        <time>2021-05-17T09:07:25Z</time>
      </trkpt>
      <trkpt lat="43.99735" lon="5.42216">
        <ele>976.84</ele>
        <time>2021-05-17T09:07:44Z</time>
      </trkpt>
      <trkpt lat="43.99737" lon="5.42229">
        <ele>977.8</ele>
        <time>2021-05-17T09:08:08Z</time>
      </trkpt>
      <trkpt lat="43.99741" lon="5.42231">
        <ele>977.8</ele>
        <time>2021-05-17T09:08:24Z</time>
      </trkpt>
      <trkpt lat="43.99766" lon="5.42227">
        <ele>977.8</ele>
        <time>2021-05-17T09:08:45Z</time>
      </trkpt>
      <trkpt lat="43.99771" lon="5.42226">
        <ele>977.8</ele>
        <time>2021-05-17T09:08:50Z</time>
      </trkpt>
      <trkpt lat="43.9977" lon="5.42228">
        <ele>978.28</ele>
        <time>2021-05-17T09:09:01Z</time>
      </trkpt>
      <trkpt lat="43.99746" lon="5.4223">
        <ele>977.8</ele>
        <time>2021-05-17T09:09:22Z</time>
      </trkpt>
      <trkpt lat="43.99743" lon="5.4223">
        <ele>977.8</ele>
        <time>2021-05-17T09:09:26Z</time>
      </trkpt>
      <trkpt lat="43.99735" lon="5.42215">
        <ele>977.32</ele>
        <time>2021-05-17T09:09:43Z</time>
      </trkpt>
      <trkpt lat="43.99736" lon="5.4221">
        <ele>977.8</ele>
        <time>2021-05-17T09:10:05Z</time>
      </trkpt>
      <trkpt lat="43.99736" lon="5.42213">
        <ele>977.8</ele>
        <time>2021-05-17T09:10:32Z</time>
      </trkpt>
      <trkpt lat="43.99735" lon="5.42217">
        <ele>977.8</ele>
        <time>2021-05-17T09:11:12Z</time>
      </trkpt>
      <trkpt lat="43.99737" lon="5.42224">
        <ele>977.8</ele>
        <time>2021-05-17T09:11:36Z</time>
      </trkpt>
      <trkpt lat="43.99737" lon="5.42228">
        <ele>977.8</ele>
        <time>2021-05-17T09:12:01Z</time>
      </trkpt>
      <trkpt lat="43.99737" lon="5.42227">
        <ele>977.8</ele>
        <time>2021-05-17T09:12:21Z</time>
      </trkpt>
      <trkpt lat="43.99739" lon="5.42226">
        <ele>977.8</ele>
        <time>2021-05-17T09:12:54Z</time>
      </trkpt>
      <trkpt lat="43.99736" lon="5.4223">
        <ele>977.8</ele>
        <time>2021-05-17T09:13:11Z</time>
      </trkpt>
      <trkpt lat="43.99721" lon="5.42245">
        <ele>977.8</ele>
        <time>2021-05-17T09:13:30Z</time>
      </trkpt>
      <trkpt lat="43.99708" lon="5.42239">
        <ele>977.8</ele>
        <time>2021-05-17T09:13:54Z</time>
      </trkpt>
      <trkpt lat="43.99704" lon="5.42233">
        <ele>977.8</ele>
        <time>2021-05-17T09:14:15Z</time>
      </trkpt>
      <trkpt lat="43.997" lon="5.42226">
        <ele>977.8</ele>
        <time>2021-05-17T09:14:40Z</time>
      </trkpt>
      <trkpt lat="43.99699" lon="5.42222">
        <ele>974.43</ele>
        <time>2021-05-17T09:14:53Z</time>
      </trkpt>
      <trkpt lat="43.99699" lon="5.42222">
        <ele>974.43</ele>
        <time>2021-05-17T09:14:54Z</time>
      </trkpt>
      <trkpt lat="43.99686" lon="5.42217">
        <ele>975.39</ele>
        <time>2021-05-17T09:15:17Z</time>
      </trkpt>
      <trkpt lat="43.9967" lon="5.42212">
        <ele>972.51</ele>
        <time>2021-05-17T09:15:37Z</time>
      </trkpt>
      <trkpt lat="43.99652" lon="5.42199">
        <ele>972.03</ele>
        <time>2021-05-17T09:16:00Z</time>
      </trkpt>
      <trkpt lat="43.99636" lon="5.42188">
        <ele>970.59</ele>
        <time>2021-05-17T09:16:20Z</time>
      </trkpt>
      <trkpt lat="43.9962" lon="5.42181">
        <ele>970.11</ele>
        <time>2021-05-17T09:16:39Z</time>
      </trkpt>
      <trkpt lat="43.99614" lon="5.42179">
        <ele>969.15</ele>
        <time>2021-05-17T09:16:46Z</time>
      </trkpt>
      <trkpt lat="43.99606" lon="5.42178">
        <ele>969.63</ele>
        <time>2021-05-17T09:16:52Z</time>
      </trkpt>
      <trkpt lat="43.9959" lon="5.42175">
        <ele>968.18</ele>
        <time>2021-05-17T09:17:09Z</time>
      </trkpt>
      <trkpt lat="43.99576" lon="5.4217">
        <ele>967.22</ele>
        <time>2021-05-17T09:17:23Z</time>
      </trkpt>
      <trkpt lat="43.99567" lon="5.42167">
        <ele>966.74</ele>
        <time>2021-05-17T09:17:31Z</time>
      </trkpt>
      <trkpt lat="43.9955" lon="5.42162">
        <ele>965.78</ele>
        <time>2021-05-17T09:17:47Z</time>
      </trkpt>
      <trkpt lat="43.99531" lon="5.42154">
        <ele>964.82</ele>
        <time>2021-05-17T09:18:06Z</time>
      </trkpt>
      <trkpt lat="43.99528" lon="5.42153">
        <ele>964.82</ele>
        <time>2021-05-17T09:18:09Z</time>
      </trkpt>
      <trkpt lat="43.99523" lon="5.42151">
        <ele>964.34</ele>
        <time>2021-05-17T09:18:14Z</time>
      </trkpt>
      <trkpt lat="43.99516" lon="5.42146">
        <ele>963.86</ele>
        <time>2021-05-17T09:18:20Z</time>
      </trkpt>
      <trkpt lat="43.99499" lon="5.42132">
        <ele>962.9</ele>
        <time>2021-05-17T09:18:38Z</time>
      </trkpt>
      <trkpt lat="43.99489" lon="5.42125">
        <ele>961.94</ele>
        <time>2021-05-17T09:18:48Z</time>
      </trkpt>
      <trkpt lat="43.99478" lon="5.42116">
        <ele>961.94</ele>
        <time>2021-05-17T09:19:01Z</time>
      </trkpt>
      <trkpt lat="43.99465" lon="5.42101">
        <ele>960.01</ele>
        <time>2021-05-17T09:19:18Z</time>
      </trkpt>
      <trkpt lat="43.99453" lon="5.42087">
        <ele>960.01</ele>
        <time>2021-05-17T09:19:33Z</time>
      </trkpt>
      <trkpt lat="43.99436" lon="5.42068">
        <ele>958.57</ele>
        <time>2021-05-17T09:19:53Z</time>
      </trkpt>
      <trkpt lat="43.99431" lon="5.42063">
        <ele>958.57</ele>
        <time>2021-05-17T09:19:58Z</time>
      </trkpt>
      <trkpt lat="43.9943" lon="5.42062">
        <ele>958.09</ele>
        <time>2021-05-17T09:19:59Z</time>
      </trkpt>
      <trkpt lat="43.99416" lon="5.42048">
        <ele>957.61</ele>
        <time>2021-05-17T09:20:16Z</time>
      </trkpt>
      <trkpt lat="43.9941" lon="5.42048">
        <ele>957.13</ele>
        <time>2021-05-17T09:20:24Z</time>
      </trkpt>
      <trkpt lat="43.99398" lon="5.42051">
        <ele>958.09</ele>
        <time>2021-05-17T09:20:36Z</time>
      </trkpt>
      <trkpt lat="43.99389" lon="5.42058">
        <ele>959.05</ele>
        <time>2021-05-17T09:20:52Z</time>
      </trkpt>
      <trkpt lat="43.99378" lon="5.42064">
        <ele>959.53</ele>
        <time>2021-05-17T09:21:01Z</time>
      </trkpt>
      <trkpt lat="43.9937" lon="5.42064">
        <ele>960.01</ele>
        <time>2021-05-17T09:21:12Z</time>
      </trkpt>
      <trkpt lat="43.9936" lon="5.42068">
        <ele>960.01</ele>
        <time>2021-05-17T09:21:27Z</time>
      </trkpt>
      <trkpt lat="43.99346" lon="5.42073">
        <ele>960.01</ele>
        <time>2021-05-17T09:21:43Z</time>
      </trkpt>
      <trkpt lat="43.99325" lon="5.42082">
        <ele>960.01</ele>
        <time>2021-05-17T09:21:56Z</time>
      </trkpt>
      <trkpt lat="43.99311" lon="5.4208">
        <ele>959.53</ele>
        <time>2021-05-17T09:22:08Z</time>
      </trkpt>
      <trkpt lat="43.99298" lon="5.42074">
        <ele>959.53</ele>
        <time>2021-05-17T09:22:23Z</time>
      </trkpt>
      <trkpt lat="43.99294" lon="5.42072">
        <ele>959.53</ele>
        <time>2021-05-17T09:22:27Z</time>
      </trkpt>
      <trkpt lat="43.99289" lon="5.42068">
        <ele>959.53</ele>
        <time>2021-05-17T09:22:33Z</time>
      </trkpt>
      <trkpt lat="43.99278" lon="5.42062">
        <ele>959.53</ele>
        <time>2021-05-17T09:22:46Z</time>
      </trkpt>
      <trkpt lat="43.99264" lon="5.42056">
        <ele>959.53</ele>
        <time>2021-05-17T09:22:58Z</time>
      </trkpt>
      <trkpt lat="43.99255" lon="5.42054">
        <ele>959.05</ele>
        <time>2021-05-17T09:23:05Z</time>
      </trkpt>
      <trkpt lat="43.99235" lon="5.42046">
        <ele>959.05</ele>
        <time>2021-05-17T09:23:23Z</time>
      </trkpt>
      <trkpt lat="43.99225" lon="5.4204">
        <ele>959.05</ele>
        <time>2021-05-17T09:23:39Z</time>
      </trkpt>
      <trkpt lat="43.99216" lon="5.42041">
        <ele>959.05</ele>
        <time>2021-05-17T09:23:49Z</time>
      </trkpt>
      <trkpt lat="43.99209" lon="5.42042">
        <ele>959.53</ele>
        <time>2021-05-17T09:24:00Z</time>
      </trkpt>
      <trkpt lat="43.99197" lon="5.42048">
        <ele>960.01</ele>
        <time>2021-05-17T09:24:18Z</time>
      </trkpt>
      <trkpt lat="43.99183" lon="5.42056">
        <ele>960.01</ele>
        <time>2021-05-17T09:24:32Z</time>
      </trkpt>
      <trkpt lat="43.99162" lon="5.42062">
        <ele>959.53</ele>
        <time>2021-05-17T09:24:53Z</time>
      </trkpt>
      <trkpt lat="43.99149" lon="5.4206">
        <ele>960.49</ele>
        <time>2021-05-17T09:25:07Z</time>
      </trkpt>
      <trkpt lat="43.99133" lon="5.42057">
        <ele>960.01</ele>
        <time>2021-05-17T09:25:23Z</time>
      </trkpt>
      <trkpt lat="43.99129" lon="5.42056">
        <ele>960.49</ele>
        <time>2021-05-17T09:25:25Z</time>
      </trkpt>
      <trkpt lat="43.99118" lon="5.42051">
        <ele>960.98</ele>
        <time>2021-05-17T09:25:41Z</time>
      </trkpt>
      <trkpt lat="43.99101" lon="5.42056">
        <ele>962.42</ele>
        <time>2021-05-17T09:26:00Z</time>
      </trkpt>
      <trkpt lat="43.99098" lon="5.4206">
        <ele>962.9</ele>
        <time>2021-05-17T09:26:06Z</time>
      </trkpt>
      <trkpt lat="43.99097" lon="5.42062">
        <ele>963.38</ele>
        <time>2021-05-17T09:26:08Z</time>
      </trkpt>
      <trkpt lat="43.99084" lon="5.42071">
        <ele>964.82</ele>
        <time>2021-05-17T09:26:21Z</time>
      </trkpt>
      <trkpt lat="43.99078" lon="5.42075">
        <ele>965.78</ele>
        <time>2021-05-17T09:26:33Z</time>
      </trkpt>
      <trkpt lat="43.99066" lon="5.42081">
        <ele>967.22</ele>
        <time>2021-05-17T09:26:48Z</time>
      </trkpt>
      <trkpt lat="43.99054" lon="5.42091">
        <ele>968.18</ele>
        <time>2021-05-17T09:27:02Z</time>
      </trkpt>
      <trkpt lat="43.99047" lon="5.42095">
        <ele>969.63</ele>
        <time>2021-05-17T09:27:14Z</time>
      </trkpt>
      <trkpt lat="43.99042" lon="5.421">
        <ele>970.59</ele>
        <time>2021-05-17T09:27:23Z</time>
      </trkpt>
      <trkpt lat="43.99037" lon="5.42105">
        <ele>972.51</ele>
        <time>2021-05-17T09:27:37Z</time>
      </trkpt>
      <trkpt lat="43.99018" lon="5.42118">
        <ele>974.43</ele>
        <time>2021-05-17T09:27:53Z</time>
      </trkpt>
      <trkpt lat="43.99011" lon="5.42117">
        <ele>976.36</ele>
        <time>2021-05-17T09:28:08Z</time>
      </trkpt>
      <trkpt lat="43.99005" lon="5.42117">
        <ele>977.8</ele>
        <time>2021-05-17T09:28:16Z</time>
      </trkpt>
      <trkpt lat="43.98997" lon="5.42114">
        <ele>980.2</ele>
        <time>2021-05-17T09:28:31Z</time>
      </trkpt>
      <trkpt lat="43.98991" lon="5.4211">
        <ele>980.68</ele>
        <time>2021-05-17T09:28:43Z</time>
      </trkpt>
      <trkpt lat="43.98976" lon="5.42105">
        <ele>982.6</ele>
        <time>2021-05-17T09:28:58Z</time>
      </trkpt>
      <trkpt lat="43.98968" lon="5.42097">
        <ele>984.53</ele>
        <time>2021-05-17T09:29:11Z</time>
      </trkpt>
      <trkpt lat="43.98955" lon="5.42093">
        <ele>986.93</ele>
        <time>2021-05-17T09:29:28Z</time>
      </trkpt>
      <trkpt lat="43.98943" lon="5.42097">
        <ele>989.81</ele>
        <time>2021-05-17T09:29:43Z</time>
      </trkpt>
      <trkpt lat="43.98936" lon="5.42107">
        <ele>991.26</ele>
        <time>2021-05-17T09:29:55Z</time>
      </trkpt>
      <trkpt lat="43.98935" lon="5.42108">
        <ele>991.26</ele>
        <time>2021-05-17T09:29:56Z</time>
      </trkpt>
      <trkpt lat="43.98924" lon="5.42114">
        <ele>993.18</ele>
        <time>2021-05-17T09:30:11Z</time>
      </trkpt>
      <trkpt lat="43.98923" lon="5.42114">
        <ele>993.18</ele>
        <time>2021-05-17T09:30:12Z</time>
      </trkpt>
      <trkpt lat="43.98918" lon="5.42116">
        <ele>994.14</ele>
        <time>2021-05-17T09:30:19Z</time>
      </trkpt>
      <trkpt lat="43.98913" lon="5.42111">
        <ele>994.62</ele>
        <time>2021-05-17T09:30:39Z</time>
      </trkpt>
      <trkpt lat="43.98911" lon="5.42116">
        <ele>994.62</ele>
        <time>2021-05-17T09:31:08Z</time>
      </trkpt>
      <trkpt lat="43.98909" lon="5.42109">
        <ele>994.14</ele>
        <time>2021-05-17T09:31:32Z</time>
      </trkpt>
      <trkpt lat="43.98906" lon="5.42109">
        <ele>994.14</ele>
        <time>2021-05-17T09:31:58Z</time>
      </trkpt>
      <trkpt lat="43.98908" lon="5.42111">
        <ele>994.14</ele>
        <time>2021-05-17T09:32:28Z</time>
      </trkpt>
      <trkpt lat="43.98915" lon="5.42109">
        <ele>994.14</ele>
        <time>2021-05-17T09:33:01Z</time>
      </trkpt>
      <trkpt lat="43.98916" lon="5.42111">
        <ele>994.14</ele>
        <time>2021-05-17T09:33:28Z</time>
      </trkpt>
      <trkpt lat="43.98912" lon="5.42111">
        <ele>994.14</ele>
        <time>2021-05-17T09:33:52Z</time>
      </trkpt>
      <trkpt lat="43.98898" lon="5.42099">
        <ele>994.62</ele>
        <time>2021-05-17T09:34:09Z</time>
      </trkpt>
      <trkpt lat="43.98889" lon="5.42092">
        <ele>996.54</ele>
        <time>2021-05-17T09:34:25Z</time>
      </trkpt>
      <trkpt lat="43.9888" lon="5.42081">
        <ele>997.51</ele>
        <time>2021-05-17T09:34:39Z</time>
      </trkpt>
      <trkpt lat="43.98879" lon="5.4208">
        <ele>997.51</ele>
        <time>2021-05-17T09:34:40Z</time>
      </trkpt>
      <trkpt lat="43.98877" lon="5.42079">
        <ele>997.99</ele>
        <time>2021-05-17T09:34:43Z</time>
      </trkpt>
      <trkpt lat="43.98873" lon="5.42076">
        <ele>997.99</ele>
        <time>2021-05-17T09:34:46Z</time>
      </trkpt>
      <trkpt lat="43.98864" lon="5.42064">
        <ele>997.99</ele>
        <time>2021-05-17T09:34:59Z</time>
      </trkpt>
      <trkpt lat="43.98853" lon="5.42055">
        <ele>999.43</ele>
        <time>2021-05-17T09:35:13Z</time>
      </trkpt>
      <trkpt lat="43.98845" lon="5.42052">
        <ele>1000.39</ele>
        <time>2021-05-17T09:35:30Z</time>
      </trkpt>
      <trkpt lat="43.98839" lon="5.42054">
        <ele>1000.39</ele>
        <time>2021-05-17T09:35:34Z</time>
      </trkpt>
      <trkpt lat="43.98825" lon="5.42055">
        <ele>1001.83</ele>
        <time>2021-05-17T09:35:46Z</time>
      </trkpt>
      <trkpt lat="43.98813" lon="5.42055">
        <ele>1002.79</ele>
        <time>2021-05-17T09:35:59Z</time>
      </trkpt>
      <trkpt lat="43.98802" lon="5.42049">
        <ele>1003.75</ele>
        <time>2021-05-17T09:36:14Z</time>
      </trkpt>
      <trkpt lat="43.98784" lon="5.42028">
        <ele>1002.79</ele>
        <time>2021-05-17T09:36:37Z</time>
      </trkpt>
      <trkpt lat="43.98776" lon="5.42019">
        <ele>1002.31</ele>
        <time>2021-05-17T09:36:49Z</time>
      </trkpt>
      <trkpt lat="43.98776" lon="5.42017">
        <ele>1002.31</ele>
        <time>2021-05-17T09:36:50Z</time>
      </trkpt>
      <trkpt lat="43.98775" lon="5.42008">
        <ele>1002.79</ele>
        <time>2021-05-17T09:37:07Z</time>
      </trkpt>
      <trkpt lat="43.98772" lon="5.42001">
        <ele>1002.31</ele>
        <time>2021-05-17T09:37:29Z</time>
      </trkpt>
      <trkpt lat="43.98774" lon="5.42001">
        <ele>1001.83</ele>
        <time>2021-05-17T09:38:07Z</time>
      </trkpt>
      <trkpt lat="43.98773" lon="5.42">
        <ele>1001.83</ele>
        <time>2021-05-17T09:38:39Z</time>
      </trkpt>
      <trkpt lat="43.98773" lon="5.41996">
        <ele>1001.83</ele>
        <time>2021-05-17T09:39:10Z</time>
      </trkpt>
      <trkpt lat="43.98766" lon="5.41985">
        <ele>1001.83</ele>
        <time>2021-05-17T09:39:31Z</time>
      </trkpt>
      <trkpt lat="43.98759" lon="5.41966">
        <ele>1000.39</ele>
        <time>2021-05-17T09:39:49Z</time>
      </trkpt>
      <trkpt lat="43.98752" lon="5.41956">
        <ele>999.43</ele>
        <time>2021-05-17T09:40:00Z</time>
      </trkpt>
      <trkpt lat="43.98745" lon="5.41946">
        <ele>999.43</ele>
        <time>2021-05-17T09:40:16Z</time>
      </trkpt>
      <trkpt lat="43.98744" lon="5.41946">
        <ele>999.43</ele>
        <time>2021-05-17T09:40:18Z</time>
      </trkpt>
      <trkpt lat="43.98733" lon="5.41945">
        <ele>999.43</ele>
        <time>2021-05-17T09:40:28Z</time>
      </trkpt>
      <trkpt lat="43.98725" lon="5.41942">
        <ele>999.43</ele>
        <time>2021-05-17T09:40:39Z</time>
      </trkpt>
      <trkpt lat="43.98724" lon="5.41942">
        <ele>999.43</ele>
        <time>2021-05-17T09:40:40Z</time>
      </trkpt>
      <trkpt lat="43.98722" lon="5.41942">
        <ele>999.43</ele>
        <time>2021-05-17T09:40:42Z</time>
      </trkpt>
      <trkpt lat="43.98718" lon="5.4194">
        <ele>999.43</ele>
        <time>2021-05-17T09:40:46Z</time>
      </trkpt>
      <trkpt lat="43.98714" lon="5.41938">
        <ele>999.43</ele>
        <time>2021-05-17T09:40:51Z</time>
      </trkpt>
      <trkpt lat="43.98713" lon="5.41938">
        <ele>999.43</ele>
        <time>2021-05-17T09:40:52Z</time>
      </trkpt>
      <trkpt lat="43.98711" lon="5.41938">
        <ele>999.43</ele>
        <time>2021-05-17T09:40:54Z</time>
      </trkpt>
      <trkpt lat="43.98657" lon="5.41913">
        <ele>996.54</ele>
        <time>2021-05-17T09:42:01Z</time>
      </trkpt>
      <trkpt lat="43.98655" lon="5.41913">
        <ele>996.54</ele>
        <time>2021-05-17T09:42:02Z</time>
      </trkpt>
      <trkpt lat="43.98632" lon="5.41902">
        <ele>995.1</ele>
        <time>2021-05-17T09:42:16Z</time>
      </trkpt>
      <trkpt lat="43.98617" lon="5.41895">
        <ele>993.66</ele>
        <time>2021-05-17T09:42:31Z</time>
      </trkpt>
      <trkpt lat="43.9861" lon="5.41893">
        <ele>993.18</ele>
        <time>2021-05-17T09:42:36Z</time>
      </trkpt>
      <trkpt lat="43.98599" lon="5.41887">
        <ele>992.7</ele>
        <time>2021-05-17T09:42:51Z</time>
      </trkpt>
      <trkpt lat="43.98575" lon="5.41888">
        <ele>991.26</ele>
        <time>2021-05-17T09:43:12Z</time>
      </trkpt>
      <trkpt lat="43.98569" lon="5.41887">
        <ele>990.78</ele>
        <time>2021-05-17T09:43:21Z</time>
      </trkpt>
      <trkpt lat="43.9856" lon="5.4189">
        <ele>990.3</ele>
        <time>2021-05-17T09:43:42Z</time>
      </trkpt>
      <trkpt lat="43.98534" lon="5.41906">
        <ele>989.81</ele>
        <time>2021-05-17T09:43:58Z</time>
      </trkpt>
      <trkpt lat="43.98523" lon="5.41911">
        <ele>989.33</ele>
        <time>2021-05-17T09:44:10Z</time>
      </trkpt>
      <trkpt lat="43.98508" lon="5.41913">
        <ele>987.89</ele>
        <time>2021-05-17T09:44:25Z</time>
      </trkpt>
      <trkpt lat="43.98489" lon="5.41925">
        <ele>986.93</ele>
        <time>2021-05-17T09:44:40Z</time>
      </trkpt>
      <trkpt lat="43.98486" lon="5.41928">
        <ele>986.93</ele>
        <time>2021-05-17T09:44:43Z</time>
      </trkpt>
      <trkpt lat="43.98484" lon="5.41929">
        <ele>986.45</ele>
        <time>2021-05-17T09:44:45Z</time>
      </trkpt>
      <trkpt lat="43.9847" lon="5.41942">
        <ele>985.49</ele>
        <time>2021-05-17T09:44:58Z</time>
      </trkpt>
      <trkpt lat="43.98457" lon="5.4195">
        <ele>985.01</ele>
        <time>2021-05-17T09:45:12Z</time>
      </trkpt>
      <trkpt lat="43.98447" lon="5.41956">
        <ele>984.53</ele>
        <time>2021-05-17T09:45:26Z</time>
      </trkpt>
      <trkpt lat="43.98427" lon="5.41962">
        <ele>983.57</ele>
        <time>2021-05-17T09:45:39Z</time>
      </trkpt>
      <trkpt lat="43.98413" lon="5.41965">
        <ele>983.09</ele>
        <time>2021-05-17T09:45:52Z</time>
      </trkpt>
      <trkpt lat="43.98402" lon="5.41964">
        <ele>982.6</ele>
        <time>2021-05-17T09:46:04Z</time>
      </trkpt>
      <trkpt lat="43.98389" lon="5.41966">
        <ele>981.16</ele>
        <time>2021-05-17T09:46:20Z</time>
      </trkpt>
      <trkpt lat="43.98374" lon="5.41971">
        <ele>980.2</ele>
        <time>2021-05-17T09:46:35Z</time>
      </trkpt>
      <trkpt lat="43.9836" lon="5.41975">
        <ele>979.24</ele>
        <time>2021-05-17T09:46:45Z</time>
      </trkpt>
      <trkpt lat="43.98352" lon="5.41975">
        <ele>979.24</ele>
        <time>2021-05-17T09:46:55Z</time>
      </trkpt>
      <trkpt lat="43.98348" lon="5.41978">
        <ele>978.76</ele>
        <time>2021-05-17T09:47:04Z</time>
      </trkpt>
      <trkpt lat="43.9833" lon="5.41987">
        <ele>977.8</ele>
        <time>2021-05-17T09:47:17Z</time>
      </trkpt>
      <trkpt lat="43.98327" lon="5.41988">
        <ele>977.8</ele>
        <time>2021-05-17T09:47:19Z</time>
      </trkpt>
      <trkpt lat="43.98324" lon="5.4199">
        <ele>977.8</ele>
        <time>2021-05-17T09:47:21Z</time>
      </trkpt>
      <trkpt lat="43.98313" lon="5.4199">
        <ele>976.84</ele>
        <time>2021-05-17T09:47:34Z</time>
      </trkpt>
      <trkpt lat="43.98305" lon="5.41991">
        <ele>975.88</ele>
        <time>2021-05-17T09:47:40Z</time>
      </trkpt>
      <trkpt lat="43.98304" lon="5.41991">
        <ele>975.88</ele>
        <time>2021-05-17T09:47:41Z</time>
      </trkpt>
      <trkpt lat="43.98293" lon="5.41988">
        <ele>974.91</ele>
        <time>2021-05-17T09:47:52Z</time>
      </trkpt>
      <trkpt lat="43.98279" lon="5.41989">
        <ele>973.95</ele>
        <time>2021-05-17T09:48:06Z</time>
      </trkpt>
      <trkpt lat="43.98261" lon="5.41988">
        <ele>972.03</ele>
        <time>2021-05-17T09:48:20Z</time>
      </trkpt>
      <trkpt lat="43.98246" lon="5.41994">
        <ele>970.59</ele>
        <time>2021-05-17T09:48:33Z</time>
      </trkpt>
      <trkpt lat="43.98231" lon="5.42004">
        <ele>969.15</ele>
        <time>2021-05-17T09:48:48Z</time>
      </trkpt>
      <trkpt lat="43.98225" lon="5.42012">
        <ele>967.7</ele>
        <time>2021-05-17T09:49:07Z</time>
      </trkpt>
      <trkpt lat="43.98223" lon="5.42016">
        <ele>967.22</ele>
        <time>2021-05-17T09:49:10Z</time>
      </trkpt>
      <trkpt lat="43.98222" lon="5.42018">
        <ele>967.22</ele>
        <time>2021-05-17T09:49:11Z</time>
      </trkpt>
      <trkpt lat="43.98215" lon="5.42034">
        <ele>965.78</ele>
        <time>2021-05-17T09:49:26Z</time>
      </trkpt>
      <trkpt lat="43.98208" lon="5.42044">
        <ele>963.38</ele>
        <time>2021-05-17T09:49:44Z</time>
      </trkpt>
      <trkpt lat="43.98207" lon="5.42045">
        <ele>963.38</ele>
        <time>2021-05-17T09:49:45Z</time>
      </trkpt>
      <trkpt lat="43.98192" lon="5.42055">
        <ele>960.49</ele>
        <time>2021-05-17T09:49:58Z</time>
      </trkpt>
      <trkpt lat="43.98184" lon="5.42058">
        <ele>961.94</ele>
        <time>2021-05-17T09:50:04Z</time>
      </trkpt>
      <trkpt lat="43.98175" lon="5.42065">
        <ele>958.57</ele>
        <time>2021-05-17T09:50:12Z</time>
      </trkpt>
      <trkpt lat="43.98174" lon="5.42065">
        <ele>958.57</ele>
        <time>2021-05-17T09:50:13Z</time>
      </trkpt>
      <trkpt lat="43.98163" lon="5.42068">
        <ele>956.65</ele>
        <time>2021-05-17T09:50:25Z</time>
      </trkpt>
      <trkpt lat="43.98158" lon="5.42077">
        <ele>955.69</ele>
        <time>2021-05-17T09:50:35Z</time>
      </trkpt>
      <trkpt lat="43.98154" lon="5.42104">
        <ele>952.8</ele>
        <time>2021-05-17T09:50:55Z</time>
      </trkpt>
      <trkpt lat="43.98156" lon="5.42108">
        <ele>952.32</ele>
        <time>2021-05-17T09:51:11Z</time>
      </trkpt>
      <trkpt lat="43.98156" lon="5.42113">
        <ele>952.8</ele>
        <time>2021-05-17T09:51:34Z</time>
      </trkpt>
      <trkpt lat="43.98152" lon="5.42123">
        <ele>951.84</ele>
        <time>2021-05-17T09:51:55Z</time>
      </trkpt>
      <trkpt lat="43.98146" lon="5.42129">
        <ele>951.36</ele>
        <time>2021-05-17T09:52:15Z</time>
      </trkpt>
      <trkpt lat="43.98145" lon="5.42129">
        <ele>949.44</ele>
        <time>2021-05-17T09:52:37Z</time>
      </trkpt>
      <trkpt lat="43.98146" lon="5.42128">
        <ele>948.96</ele>
        <time>2021-05-17T09:53:09Z</time>
      </trkpt>
      <trkpt lat="43.98147" lon="5.42126">
        <ele>948.96</ele>
        <time>2021-05-17T09:53:48Z</time>
      </trkpt>
      <trkpt lat="43.98149" lon="5.42125">
        <ele>948.96</ele>
        <time>2021-05-17T09:54:24Z</time>
      </trkpt>
      <trkpt lat="43.98148" lon="5.42124">
        <ele>948.96</ele>
        <time>2021-05-17T09:55:00Z</time>
      </trkpt>
      <trkpt lat="43.98144" lon="5.42128">
        <ele>948.96</ele>
        <time>2021-05-17T09:56:21Z</time>
      </trkpt>
      <trkpt lat="43.98147" lon="5.42124">
        <ele>948.96</ele>
        <time>2021-05-17T09:57:17Z</time>
      </trkpt>
      <trkpt lat="43.98149" lon="5.42124">
        <ele>948.96</ele>
        <time>2021-05-17T09:58:01Z</time>
      </trkpt>
      <trkpt lat="43.9815" lon="5.42122">
        <ele>944.63</ele>
        <time>2021-05-17T09:58:11Z</time>
      </trkpt>
      <trkpt lat="43.9815" lon="5.42122">
        <ele>946.56</ele>
        <time>2021-05-17T09:58:12Z</time>
      </trkpt>
      <trkpt lat="43.98148" lon="5.4212">
        <ele>949.92</ele>
        <time>2021-05-17T09:58:28Z</time>
      </trkpt>
      <trkpt lat="43.98148" lon="5.42118">
        <ele>951.36</ele>
        <time>2021-05-17T09:58:43Z</time>
      </trkpt>
      <trkpt lat="43.98148" lon="5.42106">
        <ele>949.44</ele>
        <time>2021-05-17T09:59:04Z</time>
      </trkpt>
      <trkpt lat="43.98147" lon="5.42107">
        <ele>949.44</ele>
        <time>2021-05-17T09:59:14Z</time>
      </trkpt>
      <trkpt lat="43.98149" lon="5.42118">
        <ele>949.44</ele>
        <time>2021-05-17T09:59:49Z</time>
      </trkpt>
      <trkpt lat="43.98147" lon="5.42121">
        <ele>948.96</ele>
        <time>2021-05-17T10:00:27Z</time>
      </trkpt>
      <trkpt lat="43.98146" lon="5.42124">
        <ele>948.48</ele>
        <time>2021-05-17T10:00:59Z</time>
      </trkpt>
      <trkpt lat="43.98149" lon="5.42118">
        <ele>948</ele>
        <time>2021-05-17T10:01:36Z</time>
      </trkpt>
      <trkpt lat="43.98151" lon="5.42118">
        <ele>948</ele>
        <time>2021-05-17T10:02:12Z</time>
      </trkpt>
      <trkpt lat="43.98151" lon="5.4212">
        <ele>948</ele>
        <time>2021-05-17T10:03:02Z</time>
      </trkpt>
      <trkpt lat="43.98151" lon="5.4212">
        <ele>948</ele>
        <time>2021-05-17T10:03:25Z</time>
      </trkpt>
      <trkpt lat="43.98151" lon="5.42123">
        <ele>948</ele>
        <time>2021-05-17T10:05:05Z</time>
      </trkpt>
      <trkpt lat="43.98151" lon="5.42124">
        <ele>948</ele>
        <time>2021-05-17T10:05:40Z</time>
      </trkpt>
      <trkpt lat="43.98149" lon="5.42126">
        <ele>948</ele>
        <time>2021-05-17T10:06:24Z</time>
      </trkpt>
      <trkpt lat="43.98155" lon="5.42123">
        <ele>948</ele>
        <time>2021-05-17T10:07:19Z</time>
      </trkpt>
      <trkpt lat="43.98157" lon="5.42122">
        <ele>948</ele>
        <time>2021-05-17T10:07:50Z</time>
      </trkpt>
      <trkpt lat="43.98153" lon="5.42123">
        <ele>948</ele>
        <time>2021-05-17T10:08:43Z</time>
      </trkpt>
      <trkpt lat="43.98151" lon="5.42122">
        <ele>948</ele>
        <time>2021-05-17T10:09:16Z</time>
      </trkpt>
      <trkpt lat="43.98151" lon="5.42121">
        <ele>948</ele>
        <time>2021-05-17T10:10:39Z</time>
      </trkpt>
      <trkpt lat="43.98151" lon="5.42123">
        <ele>948</ele>
        <time>2021-05-17T10:11:14Z</time>
      </trkpt>
      <trkpt lat="43.98151" lon="5.42123">
        <ele>948</ele>
        <time>2021-05-17T10:11:55Z</time>
      </trkpt>
      <trkpt lat="43.98152" lon="5.42118">
        <ele>948</ele>
        <time>2021-05-17T10:12:28Z</time>
      </trkpt>
      <trkpt lat="43.98154" lon="5.42115">
        <ele>948</ele>
        <time>2021-05-17T10:13:05Z</time>
      </trkpt>
      <trkpt lat="43.98153" lon="5.42118">
        <ele>948</ele>
        <time>2021-05-17T10:13:33Z</time>
      </trkpt>
      <trkpt lat="43.98154" lon="5.42117">
        <ele>948</ele>
        <time>2021-05-17T10:14:00Z</time>
      </trkpt>
      <trkpt lat="43.98154" lon="5.42115">
        <ele>948</ele>
        <time>2021-05-17T10:14:32Z</time>
      </trkpt>
      <trkpt lat="43.98153" lon="5.42114">
        <ele>948</ele>
        <time>2021-05-17T10:15:00Z</time>
      </trkpt>
      <trkpt lat="43.98154" lon="5.42114">
        <ele>948</ele>
        <time>2021-05-17T10:15:33Z</time>
      </trkpt>
      <trkpt lat="43.98152" lon="5.42115">
        <ele>948</ele>
        <time>2021-05-17T10:16:05Z</time>
      </trkpt>
      <trkpt lat="43.98152" lon="5.42118">
        <ele>948</ele>
        <time>2021-05-17T10:16:38Z</time>
      </trkpt>
      <trkpt lat="43.98151" lon="5.42117">
        <ele>948</ele>
        <time>2021-05-17T10:17:07Z</time>
      </trkpt>
      <trkpt lat="43.98149" lon="5.42118">
        <ele>948</ele>
        <time>2021-05-17T10:18:00Z</time>
      </trkpt>
      <trkpt lat="43.9815" lon="5.4212">
        <ele>948</ele>
        <time>2021-05-17T10:19:19Z</time>
      </trkpt>
      <trkpt lat="43.98149" lon="5.42117">
        <ele>948</ele>
        <time>2021-05-17T10:21:10Z</time>
      </trkpt>
      <trkpt lat="43.98147" lon="5.4212">
        <ele>948</ele>
        <time>2021-05-17T10:22:58Z</time>
      </trkpt>
      <trkpt lat="43.98146" lon="5.4212">
        <ele>948</ele>
        <time>2021-05-17T10:24:13Z</time>
      </trkpt>
      <trkpt lat="43.98065" lon="5.42068">
        <ele>933.1</ele>
        <time>2021-05-17T10:56:43Z</time>
      </trkpt>
      <trkpt lat="43.98064" lon="5.4208">
        <ele>931.17</ele>
        <time>2021-05-17T10:57:07Z</time>
      </trkpt>
      <trkpt lat="43.98052" lon="5.4208">
        <ele>928.29</ele>
        <time>2021-05-17T10:57:35Z</time>
      </trkpt>
      <trkpt lat="43.98048" lon="5.42093">
        <ele>927.33</ele>
        <time>2021-05-17T10:58:07Z</time>
      </trkpt>
      <trkpt lat="43.98048" lon="5.42107">
        <ele>926.37</ele>
        <time>2021-05-17T10:58:37Z</time>
      </trkpt>
      <trkpt lat="43.98047" lon="5.42112">
        <ele>926.37</ele>
        <time>2021-05-17T10:58:58Z</time>
      </trkpt>
      <trkpt lat="43.98041" lon="5.4212">
        <ele>924.45</ele>
        <time>2021-05-17T10:59:20Z</time>
      </trkpt>
      <trkpt lat="43.98031" lon="5.42122">
        <ele>921.56</ele>
        <time>2021-05-17T10:59:43Z</time>
      </trkpt>
      <trkpt lat="43.9803" lon="5.42121">
        <ele>923</ele>
        <time>2021-05-17T10:59:48Z</time>
      </trkpt>
      <trkpt lat="43.98034" lon="5.42125">
        <ele>923</ele>
        <time>2021-05-17T11:00:13Z</time>
      </trkpt>
      <trkpt lat="43.98033" lon="5.42123">
        <ele>920.6</ele>
        <time>2021-05-17T11:00:38Z</time>
      </trkpt>
      <trkpt lat="43.9803" lon="5.42122">
        <ele>923</ele>
        <time>2021-05-17T11:00:48Z</time>
      </trkpt>
      <trkpt lat="43.98028" lon="5.4212">
        <ele>923</ele>
        <time>2021-05-17T11:00:50Z</time>
      </trkpt>
      <trkpt lat="43.98024" lon="5.42117">
        <ele>921.56</ele>
        <time>2021-05-17T11:01:09Z</time>
      </trkpt>
      <trkpt lat="43.9802" lon="5.4211">
        <ele>921.08</ele>
        <time>2021-05-17T11:01:23Z</time>
      </trkpt>
      <trkpt lat="43.98016" lon="5.42092">
        <ele>920.6</ele>
        <time>2021-05-17T11:01:37Z</time>
      </trkpt>
      <trkpt lat="43.98016" lon="5.42084">
        <ele>920.6</ele>
        <time>2021-05-17T11:01:51Z</time>
      </trkpt>
      <trkpt lat="43.98016" lon="5.42081">
        <ele>920.12</ele>
        <time>2021-05-17T11:01:54Z</time>
      </trkpt>
      <trkpt lat="43.98012" lon="5.42075">
        <ele>920.12</ele>
        <time>2021-05-17T11:02:08Z</time>
      </trkpt>
      <trkpt lat="43.98007" lon="5.4206">
        <ele>920.6</ele>
        <time>2021-05-17T11:02:25Z</time>
      </trkpt>
      <trkpt lat="43.98005" lon="5.42057">
        <ele>920.6</ele>
        <time>2021-05-17T11:02:57Z</time>
      </trkpt>
      <trkpt lat="43.98006" lon="5.42043">
        <ele>920.6</ele>
        <time>2021-05-17T11:03:15Z</time>
      </trkpt>
      <trkpt lat="43.98003" lon="5.42035">
        <ele>920.6</ele>
        <time>2021-05-17T11:03:24Z</time>
      </trkpt>
      <trkpt lat="43.98003" lon="5.4203">
        <ele>920.6</ele>
        <time>2021-05-17T11:03:28Z</time>
      </trkpt>
      <trkpt lat="43.97999" lon="5.42016">
        <ele>922.04</ele>
        <time>2021-05-17T11:03:41Z</time>
      </trkpt>
      <trkpt lat="43.97998" lon="5.42014">
        <ele>922.04</ele>
        <time>2021-05-17T11:03:43Z</time>
      </trkpt>
      <trkpt lat="43.97998" lon="5.41995">
        <ele>923.48</ele>
        <time>2021-05-17T11:03:58Z</time>
      </trkpt>
      <trkpt lat="43.97997" lon="5.41991">
        <ele>923.48</ele>
        <time>2021-05-17T11:04:01Z</time>
      </trkpt>
      <trkpt lat="43.98" lon="5.41984">
        <ele>923</ele>
        <time>2021-05-17T11:04:19Z</time>
      </trkpt>
      <trkpt lat="43.98001" lon="5.41984">
        <ele>921.56</ele>
        <time>2021-05-17T11:04:34Z</time>
      </trkpt>
      <trkpt lat="43.98006" lon="5.41975">
        <ele>924.45</ele>
        <time>2021-05-17T11:04:50Z</time>
      </trkpt>
      <trkpt lat="43.9802" lon="5.4196">
        <ele>925.41</ele>
        <time>2021-05-17T11:05:09Z</time>
      </trkpt>
      <trkpt lat="43.98026" lon="5.4195">
        <ele>925.41</ele>
        <time>2021-05-17T11:05:23Z</time>
      </trkpt>
      <trkpt lat="43.98033" lon="5.41931">
        <ele>925.89</ele>
        <time>2021-05-17T11:05:39Z</time>
      </trkpt>
      <trkpt lat="43.98039" lon="5.41924">
        <ele>925.41</ele>
        <time>2021-05-17T11:05:48Z</time>
      </trkpt>
      <trkpt lat="43.98044" lon="5.41914">
        <ele>925.89</ele>
        <time>2021-05-17T11:05:59Z</time>
      </trkpt>
      <trkpt lat="43.98049" lon="5.41901">
        <ele>925.41</ele>
        <time>2021-05-17T11:06:14Z</time>
      </trkpt>
      <trkpt lat="43.98053" lon="5.41897">
        <ele>925.41</ele>
        <time>2021-05-17T11:06:18Z</time>
      </trkpt>
      <trkpt lat="43.98055" lon="5.41893">
        <ele>925.41</ele>
        <time>2021-05-17T11:06:22Z</time>
      </trkpt>
      <trkpt lat="43.98069" lon="5.41878">
        <ele>925.41</ele>
        <time>2021-05-17T11:06:39Z</time>
      </trkpt>
      <trkpt lat="43.98083" lon="5.41866">
        <ele>925.89</ele>
        <time>2021-05-17T11:06:57Z</time>
      </trkpt>
      <trkpt lat="43.98092" lon="5.41859">
        <ele>926.37</ele>
        <time>2021-05-17T11:07:09Z</time>
      </trkpt>
      <trkpt lat="43.98106" lon="5.41855">
        <ele>925.41</ele>
        <time>2021-05-17T11:07:25Z</time>
      </trkpt>
      <trkpt lat="43.98121" lon="5.41845">
        <ele>925.41</ele>
        <time>2021-05-17T11:07:43Z</time>
      </trkpt>
      <trkpt lat="43.98127" lon="5.41833">
        <ele>925.89</ele>
        <time>2021-05-17T11:07:56Z</time>
      </trkpt>
      <trkpt lat="43.9813" lon="5.41826">
        <ele>926.37</ele>
        <time>2021-05-17T11:08:12Z</time>
      </trkpt>
      <trkpt lat="43.98127" lon="5.41812">
        <ele>923.96</ele>
        <time>2021-05-17T11:08:33Z</time>
      </trkpt>
      <trkpt lat="43.98119" lon="5.41809">
        <ele>922.52</ele>
        <time>2021-05-17T11:08:49Z</time>
      </trkpt>
      <trkpt lat="43.98116" lon="5.41815">
        <ele>923</ele>
        <time>2021-05-17T11:09:13Z</time>
      </trkpt>
      <trkpt lat="43.98122" lon="5.41824">
        <ele>923.96</ele>
        <time>2021-05-17T11:09:43Z</time>
      </trkpt>
      <trkpt lat="43.98132" lon="5.41829">
        <ele>923</ele>
        <time>2021-05-17T11:10:04Z</time>
      </trkpt>
      <trkpt lat="43.98137" lon="5.41832">
        <ele>923</ele>
        <time>2021-05-17T11:10:09Z</time>
      </trkpt>
      <trkpt lat="43.98139" lon="5.41832">
        <ele>923.48</ele>
        <time>2021-05-17T11:10:11Z</time>
      </trkpt>
      <trkpt lat="43.9814" lon="5.41827">
        <ele>923.96</ele>
        <time>2021-05-17T11:10:31Z</time>
      </trkpt>
      <trkpt lat="43.98146" lon="5.41828">
        <ele>925.41</ele>
        <time>2021-05-17T11:10:41Z</time>
      </trkpt>
      <trkpt lat="43.98147" lon="5.41828">
        <ele>926.37</ele>
        <time>2021-05-17T11:11:05Z</time>
      </trkpt>
      <trkpt lat="43.9815" lon="5.41816">
        <ele>927.33</ele>
        <time>2021-05-17T11:11:24Z</time>
      </trkpt>
      <trkpt lat="43.98153" lon="5.418">
        <ele>926.37</ele>
        <time>2021-05-17T11:11:38Z</time>
      </trkpt>
      <trkpt lat="43.9816" lon="5.41786">
        <ele>926.37</ele>
        <time>2021-05-17T11:11:53Z</time>
      </trkpt>
      <trkpt lat="43.98165" lon="5.41779">
        <ele>926.37</ele>
        <time>2021-05-17T11:11:58Z</time>
      </trkpt>
      <trkpt lat="43.98169" lon="5.41766">
        <ele>926.85</ele>
        <time>2021-05-17T11:12:08Z</time>
      </trkpt>
      <trkpt lat="43.98179" lon="5.4175">
        <ele>926.37</ele>
        <time>2021-05-17T11:12:25Z</time>
      </trkpt>
      <trkpt lat="43.9818" lon="5.41749">
        <ele>926.37</ele>
        <time>2021-05-17T11:12:26Z</time>
      </trkpt>
      <trkpt lat="43.98192" lon="5.41738">
        <ele>927.81</ele>
        <time>2021-05-17T11:12:40Z</time>
      </trkpt>
      <trkpt lat="43.98198" lon="5.41727">
        <ele>928.29</ele>
        <time>2021-05-17T11:12:52Z</time>
      </trkpt>
      <trkpt lat="43.98201" lon="5.41722">
        <ele>928.29</ele>
        <time>2021-05-17T11:12:56Z</time>
      </trkpt>
      <trkpt lat="43.98208" lon="5.41708">
        <ele>929.25</ele>
        <time>2021-05-17T11:13:10Z</time>
      </trkpt>
      <trkpt lat="43.98213" lon="5.41698">
        <ele>930.21</ele>
        <time>2021-05-17T11:13:22Z</time>
      </trkpt>
      <trkpt lat="43.98216" lon="5.41694">
        <ele>930.21</ele>
        <time>2021-05-17T11:13:26Z</time>
      </trkpt>
      <trkpt lat="43.98222" lon="5.41688">
        <ele>930.69</ele>
        <time>2021-05-17T11:13:36Z</time>
      </trkpt>
      <trkpt lat="43.98229" lon="5.41677">
        <ele>931.17</ele>
        <time>2021-05-17T11:13:48Z</time>
      </trkpt>
      <trkpt lat="43.98239" lon="5.41669">
        <ele>932.14</ele>
        <time>2021-05-17T11:14:01Z</time>
      </trkpt>
      <trkpt lat="43.98247" lon="5.41656">
        <ele>933.1</ele>
        <time>2021-05-17T11:14:14Z</time>
      </trkpt>
      <trkpt lat="43.9826" lon="5.41639">
        <ele>933.1</ele>
        <time>2021-05-17T11:14:32Z</time>
      </trkpt>
      <trkpt lat="43.9827" lon="5.41629">
        <ele>935.02</ele>
        <time>2021-05-17T11:14:47Z</time>
      </trkpt>
      <trkpt lat="43.98273" lon="5.41626">
        <ele>935.02</ele>
        <time>2021-05-17T11:14:50Z</time>
      </trkpt>
      <trkpt lat="43.98279" lon="5.41621">
        <ele>935.02</ele>
        <time>2021-05-17T11:15:01Z</time>
      </trkpt>
      <trkpt lat="43.98291" lon="5.41611">
        <ele>935.98</ele>
        <time>2021-05-17T11:15:17Z</time>
      </trkpt>
      <trkpt lat="43.98296" lon="5.4161">
        <ele>935.98</ele>
        <time>2021-05-17T11:15:22Z</time>
      </trkpt>
      <trkpt lat="43.9831" lon="5.41605">
        <ele>935.98</ele>
        <time>2021-05-17T11:15:37Z</time>
      </trkpt>
      <trkpt lat="43.98317" lon="5.41602">
        <ele>935.5</ele>
        <time>2021-05-17T11:15:51Z</time>
      </trkpt>
      <trkpt lat="43.9832" lon="5.41601">
        <ele>935.02</ele>
        <time>2021-05-17T11:15:54Z</time>
      </trkpt>
      <trkpt lat="43.98329" lon="5.41599">
        <ele>935.02</ele>
        <time>2021-05-17T11:16:03Z</time>
      </trkpt>
      <trkpt lat="43.98345" lon="5.41592">
        <ele>935.02</ele>
        <time>2021-05-17T11:16:19Z</time>
      </trkpt>
      <trkpt lat="43.98353" lon="5.4159">
        <ele>934.54</ele>
        <time>2021-05-17T11:16:25Z</time>
      </trkpt>
      <trkpt lat="43.98364" lon="5.41587">
        <ele>934.06</ele>
        <time>2021-05-17T11:16:36Z</time>
      </trkpt>
      <trkpt lat="43.98382" lon="5.41579">
        <ele>934.54</ele>
        <time>2021-05-17T11:16:54Z</time>
      </trkpt>
      <trkpt lat="43.98391" lon="5.41575">
        <ele>933.58</ele>
        <time>2021-05-17T11:17:05Z</time>
      </trkpt>
      <trkpt lat="43.98397" lon="5.41573">
        <ele>934.06</ele>
        <time>2021-05-17T11:17:11Z</time>
      </trkpt>
      <trkpt lat="43.984" lon="5.41572">
        <ele>933.58</ele>
        <time>2021-05-17T11:17:14Z</time>
      </trkpt>
      <trkpt lat="43.98404" lon="5.41568">
        <ele>933.1</ele>
        <time>2021-05-17T11:17:22Z</time>
      </trkpt>
      <trkpt lat="43.98405" lon="5.41568">
        <ele>933.1</ele>
        <time>2021-05-17T11:17:23Z</time>
      </trkpt>
      <trkpt lat="43.98422" lon="5.41566">
        <ele>932.62</ele>
        <time>2021-05-17T11:17:38Z</time>
      </trkpt>
      <trkpt lat="43.98423" lon="5.41565">
        <ele>932.62</ele>
        <time>2021-05-17T11:17:39Z</time>
      </trkpt>
      <trkpt lat="43.9843" lon="5.4156">
        <ele>932.62</ele>
        <time>2021-05-17T11:17:48Z</time>
      </trkpt>
      <trkpt lat="43.98431" lon="5.41559">
        <ele>932.14</ele>
        <time>2021-05-17T11:17:49Z</time>
      </trkpt>
      <trkpt lat="43.9844" lon="5.41557">
        <ele>932.62</ele>
        <time>2021-05-17T11:17:55Z</time>
      </trkpt>
      <trkpt lat="43.98449" lon="5.41551">
        <ele>932.14</ele>
        <time>2021-05-17T11:18:07Z</time>
      </trkpt>
      <trkpt lat="43.98452" lon="5.41551">
        <ele>931.65</ele>
        <time>2021-05-17T11:18:11Z</time>
      </trkpt>
      <trkpt lat="43.98462" lon="5.41548">
        <ele>931.17</ele>
        <time>2021-05-17T11:18:21Z</time>
      </trkpt>
      <trkpt lat="43.98467" lon="5.41546">
        <ele>930.69</ele>
        <time>2021-05-17T11:18:24Z</time>
      </trkpt>
      <trkpt lat="43.98468" lon="5.41545">
        <ele>930.69</ele>
        <time>2021-05-17T11:18:25Z</time>
      </trkpt>
      <trkpt lat="43.9847" lon="5.41545">
        <ele>930.69</ele>
        <time>2021-05-17T11:18:26Z</time>
      </trkpt>
      <trkpt lat="43.98479" lon="5.4154">
        <ele>930.21</ele>
        <time>2021-05-17T11:18:35Z</time>
      </trkpt>
      <trkpt lat="43.985" lon="5.41524">
        <ele>928.77</ele>
        <time>2021-05-17T11:18:58Z</time>
      </trkpt>
      <trkpt lat="43.98507" lon="5.41519">
        <ele>928.29</ele>
        <time>2021-05-17T11:19:10Z</time>
      </trkpt>
      <trkpt lat="43.98515" lon="5.41516">
        <ele>927.33</ele>
        <time>2021-05-17T11:19:22Z</time>
      </trkpt>
      <trkpt lat="43.98518" lon="5.41515">
        <ele>927.33</ele>
        <time>2021-05-17T11:19:24Z</time>
      </trkpt>
      <trkpt lat="43.9853" lon="5.4151">
        <ele>927.33</ele>
        <time>2021-05-17T11:19:36Z</time>
      </trkpt>
      <trkpt lat="43.9854" lon="5.41508">
        <ele>926.37</ele>
        <time>2021-05-17T11:19:51Z</time>
      </trkpt>
      <trkpt lat="43.98553" lon="5.41503">
        <ele>925.41</ele>
        <time>2021-05-17T11:20:03Z</time>
      </trkpt>
      <trkpt lat="43.98562" lon="5.415">
        <ele>924.45</ele>
        <time>2021-05-17T11:20:12Z</time>
      </trkpt>
      <trkpt lat="43.98578" lon="5.41494">
        <ele>923</ele>
        <time>2021-05-17T11:20:28Z</time>
      </trkpt>
      <trkpt lat="43.98579" lon="5.41494">
        <ele>923</ele>
        <time>2021-05-17T11:20:29Z</time>
      </trkpt>
      <trkpt lat="43.98589" lon="5.41491">
        <ele>922.04</ele>
        <time>2021-05-17T11:20:40Z</time>
      </trkpt>
      <trkpt lat="43.98599" lon="5.41487">
        <ele>921.56</ele>
        <time>2021-05-17T11:20:54Z</time>
      </trkpt>
      <trkpt lat="43.98606" lon="5.41487">
        <ele>918.2</ele>
        <time>2021-05-17T11:21:05Z</time>
      </trkpt>
      <trkpt lat="43.98628" lon="5.41478">
        <ele>917.24</ele>
        <time>2021-05-17T11:21:28Z</time>
      </trkpt>
      <trkpt lat="43.98641" lon="5.41475">
        <ele>915.79</ele>
        <time>2021-05-17T11:21:44Z</time>
      </trkpt>
      <trkpt lat="43.98651" lon="5.41469">
        <ele>913.87</ele>
        <time>2021-05-17T11:21:59Z</time>
      </trkpt>
      <trkpt lat="43.98658" lon="5.41468">
        <ele>913.39</ele>
        <time>2021-05-17T11:22:05Z</time>
      </trkpt>
      <trkpt lat="43.98671" lon="5.41463">
        <ele>912.43</ele>
        <time>2021-05-17T11:22:18Z</time>
      </trkpt>
      <trkpt lat="43.98673" lon="5.41461">
        <ele>911.47</ele>
        <time>2021-05-17T11:22:21Z</time>
      </trkpt>
      <trkpt lat="43.98686" lon="5.41458">
        <ele>910.99</ele>
        <time>2021-05-17T11:22:33Z</time>
      </trkpt>
      <trkpt lat="43.98699" lon="5.41453">
        <ele>909.54</ele>
        <time>2021-05-17T11:22:46Z</time>
      </trkpt>
      <trkpt lat="43.9871" lon="5.41449">
        <ele>908.58</ele>
        <time>2021-05-17T11:22:58Z</time>
      </trkpt>
      <trkpt lat="43.98721" lon="5.41444">
        <ele>908.58</ele>
        <time>2021-05-17T11:23:11Z</time>
      </trkpt>
      <trkpt lat="43.98733" lon="5.4144">
        <ele>908.1</ele>
        <time>2021-05-17T11:23:28Z</time>
      </trkpt>
      <trkpt lat="43.98753" lon="5.41434">
        <ele>906.66</ele>
        <time>2021-05-17T11:23:48Z</time>
      </trkpt>
      <trkpt lat="43.9876" lon="5.41431">
        <ele>906.18</ele>
        <time>2021-05-17T11:23:52Z</time>
      </trkpt>
      <trkpt lat="43.98771" lon="5.41425">
        <ele>903.3</ele>
        <time>2021-05-17T11:24:06Z</time>
      </trkpt>
      <trkpt lat="43.98781" lon="5.41418">
        <ele>903.3</ele>
        <time>2021-05-17T11:24:20Z</time>
      </trkpt>
      <trkpt lat="43.98783" lon="5.41418">
        <ele>900.41</ele>
        <time>2021-05-17T11:24:24Z</time>
      </trkpt>
      <trkpt lat="43.98784" lon="5.41417">
        <ele>899.45</ele>
        <time>2021-05-17T11:24:26Z</time>
      </trkpt>
      <trkpt lat="43.98789" lon="5.41414">
        <ele>903.3</ele>
        <time>2021-05-17T11:24:30Z</time>
      </trkpt>
      <trkpt lat="43.98799" lon="5.41407">
        <ele>899.93</ele>
        <time>2021-05-17T11:24:41Z</time>
      </trkpt>
      <trkpt lat="43.98808" lon="5.41401">
        <ele>898.97</ele>
        <time>2021-05-17T11:24:57Z</time>
      </trkpt>
      <trkpt lat="43.98828" lon="5.41395">
        <ele>897.05</ele>
        <time>2021-05-17T11:25:18Z</time>
      </trkpt>
      <trkpt lat="43.98832" lon="5.4139">
        <ele>895.61</ele>
        <time>2021-05-17T11:25:39Z</time>
      </trkpt>
      <trkpt lat="43.9883" lon="5.41382">
        <ele>898.97</ele>
        <time>2021-05-17T11:26:01Z</time>
      </trkpt>
      <trkpt lat="43.9883" lon="5.41382">
        <ele>898.49</ele>
        <time>2021-05-17T11:26:02Z</time>
      </trkpt>
      <trkpt lat="43.98831" lon="5.41379">
        <ele>896.09</ele>
        <time>2021-05-17T11:26:31Z</time>
      </trkpt>
      <trkpt lat="43.98835" lon="5.41378">
        <ele>896.57</ele>
        <time>2021-05-17T11:26:35Z</time>
      </trkpt>
      <trkpt lat="43.98851" lon="5.41388">
        <ele>897.05</ele>
        <time>2021-05-17T11:26:49Z</time>
      </trkpt>
      <trkpt lat="43.98859" lon="5.41404">
        <ele>899.93</ele>
        <time>2021-05-17T11:27:05Z</time>
      </trkpt>
      <trkpt lat="43.98864" lon="5.41407">
        <ele>900.41</ele>
        <time>2021-05-17T11:27:10Z</time>
      </trkpt>
      <trkpt lat="43.98865" lon="5.41407">
        <ele>900.41</ele>
        <time>2021-05-17T11:27:11Z</time>
      </trkpt>
      <trkpt lat="43.98879" lon="5.41421">
        <ele>902.33</ele>
        <time>2021-05-17T11:27:27Z</time>
      </trkpt>
      <trkpt lat="43.98887" lon="5.41433">
        <ele>903.78</ele>
        <time>2021-05-17T11:27:39Z</time>
      </trkpt>
      <trkpt lat="43.98895" lon="5.41438">
        <ele>903.78</ele>
        <time>2021-05-17T11:27:50Z</time>
      </trkpt>
      <trkpt lat="43.98909" lon="5.41443">
        <ele>904.26</ele>
        <time>2021-05-17T11:28:03Z</time>
      </trkpt>
      <trkpt lat="43.98919" lon="5.41445">
        <ele>905.22</ele>
        <time>2021-05-17T11:28:15Z</time>
      </trkpt>
      <trkpt lat="43.98936" lon="5.41453">
        <ele>906.18</ele>
        <time>2021-05-17T11:28:37Z</time>
      </trkpt>
      <trkpt lat="43.98952" lon="5.41465">
        <ele>908.1</ele>
        <time>2021-05-17T11:29:01Z</time>
      </trkpt>
      <trkpt lat="43.98964" lon="5.41475">
        <ele>908.58</ele>
        <time>2021-05-17T11:29:18Z</time>
      </trkpt>
      <trkpt lat="43.98968" lon="5.41478">
        <ele>911.47</ele>
        <time>2021-05-17T11:29:24Z</time>
      </trkpt>
      <trkpt lat="43.98982" lon="5.41487">
        <ele>911.47</ele>
        <time>2021-05-17T11:29:39Z</time>
      </trkpt>
      <trkpt lat="43.98983" lon="5.41489">
        <ele>911.47</ele>
        <time>2021-05-17T11:29:41Z</time>
      </trkpt>
      <trkpt lat="43.98989" lon="5.41504">
        <ele>912.43</ele>
        <time>2021-05-17T11:29:56Z</time>
      </trkpt>
      <trkpt lat="43.99001" lon="5.41518">
        <ele>912.91</ele>
        <time>2021-05-17T11:30:14Z</time>
      </trkpt>
      <trkpt lat="43.99014" lon="5.4153">
        <ele>912.91</ele>
        <time>2021-05-17T11:30:29Z</time>
      </trkpt>
      <trkpt lat="43.9902" lon="5.41553">
        <ele>915.31</ele>
        <time>2021-05-17T11:30:50Z</time>
      </trkpt>
      <trkpt lat="43.9902" lon="5.41578">
        <ele>918.2</ele>
        <time>2021-05-17T11:31:15Z</time>
      </trkpt>
      <trkpt lat="43.99026" lon="5.41602">
        <ele>918.68</ele>
        <time>2021-05-17T11:31:34Z</time>
      </trkpt>
      <trkpt lat="43.99027" lon="5.41605">
        <ele>918.68</ele>
        <time>2021-05-17T11:31:37Z</time>
      </trkpt>
      <trkpt lat="43.99035" lon="5.41623">
        <ele>919.64</ele>
        <time>2021-05-17T11:31:51Z</time>
      </trkpt>
      <trkpt lat="43.99044" lon="5.41633">
        <ele>920.6</ele>
        <time>2021-05-17T11:32:08Z</time>
      </trkpt>
      <trkpt lat="43.9905" lon="5.41646">
        <ele>921.56</ele>
        <time>2021-05-17T11:32:19Z</time>
      </trkpt>
      <trkpt lat="43.99051" lon="5.41649">
        <ele>921.56</ele>
        <time>2021-05-17T11:32:21Z</time>
      </trkpt>
      <trkpt lat="43.99053" lon="5.41649">
        <ele>921.56</ele>
        <time>2021-05-17T11:32:22Z</time>
      </trkpt>
      <trkpt lat="43.99066" lon="5.41659">
        <ele>922.04</ele>
        <time>2021-05-17T11:32:37Z</time>
      </trkpt>
      <trkpt lat="43.99073" lon="5.41661">
        <ele>922.04</ele>
        <time>2021-05-17T11:32:43Z</time>
      </trkpt>
      <trkpt lat="43.99081" lon="5.41669">
        <ele>922.52</ele>
        <time>2021-05-17T11:32:56Z</time>
      </trkpt>
      <trkpt lat="43.99095" lon="5.4168">
        <ele>923.96</ele>
        <time>2021-05-17T11:33:13Z</time>
      </trkpt>
      <trkpt lat="43.99105" lon="5.41689">
        <ele>925.41</ele>
        <time>2021-05-17T11:33:25Z</time>
      </trkpt>
      <trkpt lat="43.99121" lon="5.41699">
        <ele>927.81</ele>
        <time>2021-05-17T11:33:51Z</time>
      </trkpt>
      <trkpt lat="43.99128" lon="5.41695">
        <ele>926.85</ele>
        <time>2021-05-17T11:34:11Z</time>
      </trkpt>
      <trkpt lat="43.9913" lon="5.41694">
        <ele>926.37</ele>
        <time>2021-05-17T11:34:42Z</time>
      </trkpt>
      <trkpt lat="43.99127" lon="5.4169">
        <ele>927.33</ele>
        <time>2021-05-17T11:35:11Z</time>
      </trkpt>
      <trkpt lat="43.99124" lon="5.4169">
        <ele>927.81</ele>
        <time>2021-05-17T11:35:36Z</time>
      </trkpt>
      <trkpt lat="43.99124" lon="5.41687">
        <ele>928.29</ele>
        <time>2021-05-17T11:36:05Z</time>
      </trkpt>
      <trkpt lat="43.99123" lon="5.41687">
        <ele>929.25</ele>
        <time>2021-05-17T11:36:30Z</time>
      </trkpt>
      <trkpt lat="43.99125" lon="5.4169">
        <ele>928.29</ele>
        <time>2021-05-17T11:36:53Z</time>
      </trkpt>
      <trkpt lat="43.99127" lon="5.4169">
        <ele>928.29</ele>
        <time>2021-05-17T11:36:56Z</time>
      </trkpt>
      <trkpt lat="43.99145" lon="5.41691">
        <ele>927.81</ele>
        <time>2021-05-17T11:37:14Z</time>
      </trkpt>
      <trkpt lat="43.99149" lon="5.41692">
        <ele>927.81</ele>
        <time>2021-05-17T11:37:17Z</time>
      </trkpt>
      <trkpt lat="43.99164" lon="5.41692">
        <ele>927.33</ele>
        <time>2021-05-17T11:37:34Z</time>
      </trkpt>
      <trkpt lat="43.99182" lon="5.41696">
        <ele>927.81</ele>
        <time>2021-05-17T11:37:54Z</time>
      </trkpt>
      <trkpt lat="43.99203" lon="5.417">
        <ele>928.77</ele>
        <time>2021-05-17T11:38:16Z</time>
      </trkpt>
      <trkpt lat="43.9921" lon="5.417">
        <ele>929.25</ele>
        <time>2021-05-17T11:38:23Z</time>
      </trkpt>
      <trkpt lat="43.99228" lon="5.41702">
        <ele>929.25</ele>
        <time>2021-05-17T11:38:41Z</time>
      </trkpt>
      <trkpt lat="43.99252" lon="5.41699">
        <ele>930.21</ele>
        <time>2021-05-17T11:39:04Z</time>
      </trkpt>
      <trkpt lat="43.99274" lon="5.41678">
        <ele>930.21</ele>
        <time>2021-05-17T11:39:29Z</time>
      </trkpt>
      <trkpt lat="43.99279" lon="5.4167">
        <ele>931.17</ele>
        <time>2021-05-17T11:39:36Z</time>
      </trkpt>
      <trkpt lat="43.9928" lon="5.41669">
        <ele>931.17</ele>
        <time>2021-05-17T11:39:37Z</time>
      </trkpt>
      <trkpt lat="43.99281" lon="5.41668">
        <ele>931.17</ele>
        <time>2021-05-17T11:39:38Z</time>
      </trkpt>
      <trkpt lat="43.9929" lon="5.41649">
        <ele>931.17</ele>
        <time>2021-05-17T11:39:54Z</time>
      </trkpt>
      <trkpt lat="43.99309" lon="5.41626">
        <ele>932.62</ele>
        <time>2021-05-17T11:40:17Z</time>
      </trkpt>
      <trkpt lat="43.99323" lon="5.41604">
        <ele>932.62</ele>
        <time>2021-05-17T11:40:35Z</time>
      </trkpt>
      <trkpt lat="43.99323" lon="5.41601">
        <ele>932.14</ele>
        <time>2021-05-17T11:40:37Z</time>
      </trkpt>
      <trkpt lat="43.99322" lon="5.41582">
        <ele>932.62</ele>
        <time>2021-05-17T11:40:53Z</time>
      </trkpt>
      <trkpt lat="43.99311" lon="5.41562">
        <ele>935.02</ele>
        <time>2021-05-17T11:41:08Z</time>
      </trkpt>
      <trkpt lat="43.993" lon="5.41551">
        <ele>936.94</ele>
        <time>2021-05-17T11:41:24Z</time>
      </trkpt>
      <trkpt lat="43.99299" lon="5.41551">
        <ele>936.94</ele>
        <time>2021-05-17T11:41:25Z</time>
      </trkpt>
      <trkpt lat="43.99284" lon="5.41542">
        <ele>936.94</ele>
        <time>2021-05-17T11:41:42Z</time>
      </trkpt>
      <trkpt lat="43.99275" lon="5.41533">
        <ele>937.9</ele>
        <time>2021-05-17T11:41:55Z</time>
      </trkpt>
      <trkpt lat="43.99268" lon="5.4152">
        <ele>939.83</ele>
        <time>2021-05-17T11:42:08Z</time>
      </trkpt>
      <trkpt lat="43.99259" lon="5.41502">
        <ele>940.31</ele>
        <time>2021-05-17T11:42:24Z</time>
      </trkpt>
      <trkpt lat="43.99245" lon="5.4148">
        <ele>941.75</ele>
        <time>2021-05-17T11:42:46Z</time>
      </trkpt>
      <trkpt lat="43.99234" lon="5.41465">
        <ele>941.75</ele>
        <time>2021-05-17T11:43:03Z</time>
      </trkpt>
      <trkpt lat="43.99222" lon="5.41444">
        <ele>942.23</ele>
        <time>2021-05-17T11:43:21Z</time>
      </trkpt>
      <trkpt lat="43.99222" lon="5.41431">
        <ele>941.75</ele>
        <time>2021-05-17T11:43:36Z</time>
      </trkpt>
      <trkpt lat="43.99218" lon="5.41426">
        <ele>942.71</ele>
        <time>2021-05-17T11:43:59Z</time>
      </trkpt>
      <trkpt lat="43.99218" lon="5.41428">
        <ele>943.19</ele>
        <time>2021-05-17T11:44:30Z</time>
      </trkpt>
      <trkpt lat="43.99216" lon="5.41427">
        <ele>943.67</ele>
        <time>2021-05-17T11:44:53Z</time>
      </trkpt>
      <trkpt lat="43.99212" lon="5.41408">
        <ele>942.71</ele>
        <time>2021-05-17T11:45:22Z</time>
      </trkpt>
      <trkpt lat="43.99214" lon="5.41401">
        <ele>944.63</ele>
        <time>2021-05-17T11:45:40Z</time>
      </trkpt>
      <trkpt lat="43.99216" lon="5.41401">
        <ele>945.11</ele>
        <time>2021-05-17T11:45:51Z</time>
      </trkpt>
      <trkpt lat="43.99216" lon="5.41401">
        <ele>944.15</ele>
        <time>2021-05-17T11:46:16Z</time>
      </trkpt>
      <trkpt lat="43.99215" lon="5.41401">
        <ele>947.52</ele>
        <time>2021-05-17T11:46:28Z</time>
      </trkpt>
      <trkpt lat="43.99213" lon="5.41397">
        <ele>945.11</ele>
        <time>2021-05-17T11:46:47Z</time>
      </trkpt>
      <trkpt lat="43.99209" lon="5.41377">
        <ele>945.11</ele>
        <time>2021-05-17T11:47:05Z</time>
      </trkpt>
      <trkpt lat="43.9921" lon="5.41359">
        <ele>946.07</ele>
        <time>2021-05-17T11:47:21Z</time>
      </trkpt>
      <trkpt lat="43.99208" lon="5.41343">
        <ele>948</ele>
        <time>2021-05-17T11:47:35Z</time>
      </trkpt>
      <trkpt lat="43.9921" lon="5.41321">
        <ele>949.44</ele>
        <time>2021-05-17T11:47:55Z</time>
      </trkpt>
      <trkpt lat="43.9921" lon="5.41301">
        <ele>950.88</ele>
        <time>2021-05-17T11:48:14Z</time>
      </trkpt>
      <trkpt lat="43.99209" lon="5.41282">
        <ele>953.28</ele>
        <time>2021-05-17T11:48:30Z</time>
      </trkpt>
      <trkpt lat="43.99211" lon="5.4127">
        <ele>954.73</ele>
        <time>2021-05-17T11:48:42Z</time>
      </trkpt>
      <trkpt lat="43.99213" lon="5.41245">
        <ele>955.69</ele>
        <time>2021-05-17T11:49:02Z</time>
      </trkpt>
      <trkpt lat="43.99212" lon="5.41225">
        <ele>956.65</ele>
        <time>2021-05-17T11:49:15Z</time>
      </trkpt>
      <trkpt lat="43.99206" lon="5.412">
        <ele>958.09</ele>
        <time>2021-05-17T11:49:34Z</time>
      </trkpt>
      <trkpt lat="43.99204" lon="5.41186">
        <ele>960.01</ele>
        <time>2021-05-17T11:49:46Z</time>
      </trkpt>
      <trkpt lat="43.99194" lon="5.41167">
        <ele>960.98</ele>
        <time>2021-05-17T11:50:08Z</time>
      </trkpt>
      <trkpt lat="43.99187" lon="5.41146">
        <ele>962.42</ele>
        <time>2021-05-17T11:50:29Z</time>
      </trkpt>
      <trkpt lat="43.99178" lon="5.41116">
        <ele>962.42</ele>
        <time>2021-05-17T11:50:51Z</time>
      </trkpt>
      <trkpt lat="43.99173" lon="5.41096">
        <ele>963.86</ele>
        <time>2021-05-17T11:51:09Z</time>
      </trkpt>
      <trkpt lat="43.9917" lon="5.41072">
        <ele>964.34</ele>
        <time>2021-05-17T11:51:28Z</time>
      </trkpt>
      <trkpt lat="43.99162" lon="5.41043">
        <ele>965.78</ele>
        <time>2021-05-17T11:51:51Z</time>
      </trkpt>
      <trkpt lat="43.9916" lon="5.41036">
        <ele>965.3</ele>
        <time>2021-05-17T11:51:56Z</time>
      </trkpt>
      <trkpt lat="43.99157" lon="5.41026">
        <ele>965.3</ele>
        <time>2021-05-17T11:52:05Z</time>
      </trkpt>
      <trkpt lat="43.99151" lon="5.41006">
        <ele>967.22</ele>
        <time>2021-05-17T11:52:22Z</time>
      </trkpt>
      <trkpt lat="43.99151" lon="5.40997">
        <ele>967.22</ele>
        <time>2021-05-17T11:52:35Z</time>
      </trkpt>
      <trkpt lat="43.99151" lon="5.40996">
        <ele>966.74</ele>
        <time>2021-05-17T11:53:14Z</time>
      </trkpt>
      <trkpt lat="43.99154" lon="5.40994">
        <ele>966.26</ele>
        <time>2021-05-17T11:53:51Z</time>
      </trkpt>
      <trkpt lat="43.99154" lon="5.40995">
        <ele>966.26</ele>
        <time>2021-05-17T11:54:22Z</time>
      </trkpt>
      <trkpt lat="43.99154" lon="5.40985">
        <ele>966.26</ele>
        <time>2021-05-17T11:54:47Z</time>
      </trkpt>
      <trkpt lat="43.99156" lon="5.40982">
        <ele>968.18</ele>
        <time>2021-05-17T11:54:53Z</time>
      </trkpt>
      <trkpt lat="43.99164" lon="5.40977">
        <ele>969.15</ele>
        <time>2021-05-17T11:55:12Z</time>
      </trkpt>
      <trkpt lat="43.99157" lon="5.40974">
        <ele>968.67</ele>
        <time>2021-05-17T11:55:36Z</time>
      </trkpt>
      <trkpt lat="43.99153" lon="5.40978">
        <ele>969.15</ele>
        <time>2021-05-17T11:56:02Z</time>
      </trkpt>
      <trkpt lat="43.99155" lon="5.40981">
        <ele>969.15</ele>
        <time>2021-05-17T11:56:22Z</time>
      </trkpt>
      <trkpt lat="43.99152" lon="5.40979">
        <ele>967.22</ele>
        <time>2021-05-17T11:56:31Z</time>
      </trkpt>
      <trkpt lat="43.9915" lon="5.40976">
        <ele>969.63</ele>
        <time>2021-05-17T11:56:36Z</time>
      </trkpt>
      <trkpt lat="43.99151" lon="5.40977">
        <ele>969.63</ele>
        <time>2021-05-17T11:57:04Z</time>
      </trkpt>
      <trkpt lat="43.99142" lon="5.40962">
        <ele>968.18</ele>
        <time>2021-05-17T11:57:20Z</time>
      </trkpt>
      <trkpt lat="43.99136" lon="5.40947">
        <ele>967.7</ele>
        <time>2021-05-17T11:57:32Z</time>
      </trkpt>
      <trkpt lat="43.99129" lon="5.40926">
        <ele>968.67</ele>
        <time>2021-05-17T11:57:48Z</time>
      </trkpt>
      <trkpt lat="43.99126" lon="5.4091">
        <ele>968.18</ele>
        <time>2021-05-17T11:58:01Z</time>
      </trkpt>
      <trkpt lat="43.99123" lon="5.40896">
        <ele>968.18</ele>
        <time>2021-05-17T11:58:09Z</time>
      </trkpt>
      <trkpt lat="43.9912" lon="5.40875">
        <ele>967.22</ele>
        <time>2021-05-17T11:58:22Z</time>
      </trkpt>
      <trkpt lat="43.99124" lon="5.40855">
        <ele>967.7</ele>
        <time>2021-05-17T11:58:39Z</time>
      </trkpt>
      <trkpt lat="43.99138" lon="5.40834">
        <ele>968.67</ele>
        <time>2021-05-17T11:58:58Z</time>
      </trkpt>
      <trkpt lat="43.99151" lon="5.40818">
        <ele>968.18</ele>
        <time>2021-05-17T11:59:14Z</time>
      </trkpt>
      <trkpt lat="43.99158" lon="5.40813">
        <ele>967.7</ele>
        <time>2021-05-17T11:59:21Z</time>
      </trkpt>
      <trkpt lat="43.99159" lon="5.40813">
        <ele>967.7</ele>
        <time>2021-05-17T11:59:22Z</time>
      </trkpt>
      <trkpt lat="43.99161" lon="5.40813">
        <ele>967.7</ele>
        <time>2021-05-17T11:59:23Z</time>
      </trkpt>
      <trkpt lat="43.99176" lon="5.40802">
        <ele>967.22</ele>
        <time>2021-05-17T11:59:38Z</time>
      </trkpt>
      <trkpt lat="43.9919" lon="5.4079">
        <ele>967.22</ele>
        <time>2021-05-17T11:59:55Z</time>
      </trkpt>
      <trkpt lat="43.99204" lon="5.40782">
        <ele>967.22</ele>
        <time>2021-05-17T12:00:10Z</time>
      </trkpt>
      <trkpt lat="43.99217" lon="5.40772">
        <ele>966.74</ele>
        <time>2021-05-17T12:00:21Z</time>
      </trkpt>
      <trkpt lat="43.99218" lon="5.40771">
        <ele>966.74</ele>
        <time>2021-05-17T12:00:22Z</time>
      </trkpt>
      <trkpt lat="43.99229" lon="5.40759">
        <ele>965.78</ele>
        <time>2021-05-17T12:00:35Z</time>
      </trkpt>
      <trkpt lat="43.9923" lon="5.40757">
        <ele>965.78</ele>
        <time>2021-05-17T12:00:37Z</time>
      </trkpt>
      <trkpt lat="43.99231" lon="5.40756">
        <ele>965.78</ele>
        <time>2021-05-17T12:00:38Z</time>
      </trkpt>
      <trkpt lat="43.99232" lon="5.40756">
        <ele>965.3</ele>
        <time>2021-05-17T12:00:39Z</time>
      </trkpt>
      <trkpt lat="43.99244" lon="5.40738">
        <ele>964.82</ele>
        <time>2021-05-17T12:00:54Z</time>
      </trkpt>
      <trkpt lat="43.99245" lon="5.40736">
        <ele>964.82</ele>
        <time>2021-05-17T12:00:55Z</time>
      </trkpt>
      <trkpt lat="43.99258" lon="5.40712">
        <ele>964.82</ele>
        <time>2021-05-17T12:01:15Z</time>
      </trkpt>
      <trkpt lat="43.99266" lon="5.40691">
        <ele>965.3</ele>
        <time>2021-05-17T12:01:33Z</time>
      </trkpt>
      <trkpt lat="43.99271" lon="5.40667">
        <ele>965.78</ele>
        <time>2021-05-17T12:01:52Z</time>
      </trkpt>
      <trkpt lat="43.99271" lon="5.40651">
        <ele>965.78</ele>
        <time>2021-05-17T12:02:15Z</time>
      </trkpt>
      <trkpt lat="43.99267" lon="5.40647">
        <ele>967.22</ele>
        <time>2021-05-17T12:02:48Z</time>
      </trkpt>
      <trkpt lat="43.99264" lon="5.40642">
        <ele>967.22</ele>
        <time>2021-05-17T12:02:52Z</time>
      </trkpt>
      <trkpt lat="43.99255" lon="5.40622">
        <ele>967.22</ele>
        <time>2021-05-17T12:03:07Z</time>
      </trkpt>
      <trkpt lat="43.99246" lon="5.40597">
        <ele>967.7</ele>
        <time>2021-05-17T12:03:26Z</time>
      </trkpt>
      <trkpt lat="43.9924" lon="5.40573">
        <ele>968.67</ele>
        <time>2021-05-17T12:03:44Z</time>
      </trkpt>
      <trkpt lat="43.99228" lon="5.40548">
        <ele>969.63</ele>
        <time>2021-05-17T12:04:03Z</time>
      </trkpt>
      <trkpt lat="43.99222" lon="5.40533">
        <ele>970.59</ele>
        <time>2021-05-17T12:04:12Z</time>
      </trkpt>
      <trkpt lat="43.99221" lon="5.40532">
        <ele>970.59</ele>
        <time>2021-05-17T12:04:13Z</time>
      </trkpt>
      <trkpt lat="43.99214" lon="5.40511">
        <ele>970.11</ele>
        <time>2021-05-17T12:04:27Z</time>
      </trkpt>
      <trkpt lat="43.99213" lon="5.40508">
        <ele>969.63</ele>
        <time>2021-05-17T12:04:29Z</time>
      </trkpt>
      <trkpt lat="43.99211" lon="5.40504">
        <ele>969.63</ele>
        <time>2021-05-17T12:04:32Z</time>
      </trkpt>
      <trkpt lat="43.99206" lon="5.40484">
        <ele>970.59</ele>
        <time>2021-05-17T12:04:47Z</time>
      </trkpt>
      <trkpt lat="43.99201" lon="5.4045">
        <ele>970.11</ele>
        <time>2021-05-17T12:05:08Z</time>
      </trkpt>
      <trkpt lat="43.99195" lon="5.40423">
        <ele>970.11</ele>
        <time>2021-05-17T12:05:27Z</time>
      </trkpt>
      <trkpt lat="43.99189" lon="5.404">
        <ele>970.11</ele>
        <time>2021-05-17T12:05:44Z</time>
      </trkpt>
      <trkpt lat="43.99188" lon="5.40394">
        <ele>969.63</ele>
        <time>2021-05-17T12:05:48Z</time>
      </trkpt>
      <trkpt lat="43.99188" lon="5.40392">
        <ele>969.63</ele>
        <time>2021-05-17T12:05:49Z</time>
      </trkpt>
      <trkpt lat="43.99186" lon="5.40373">
        <ele>969.63</ele>
        <time>2021-05-17T12:06:02Z</time>
      </trkpt>
      <trkpt lat="43.99186" lon="5.40346">
        <ele>969.63</ele>
        <time>2021-05-17T12:06:20Z</time>
      </trkpt>
      <trkpt lat="43.99184" lon="5.40314">
        <ele>969.15</ele>
        <time>2021-05-17T12:06:42Z</time>
      </trkpt>
      <trkpt lat="43.99185" lon="5.40286">
        <ele>967.7</ele>
        <time>2021-05-17T12:06:59Z</time>
      </trkpt>
      <trkpt lat="43.99184" lon="5.40285">
        <ele>967.7</ele>
        <time>2021-05-17T12:07:00Z</time>
      </trkpt>
      <trkpt lat="43.99183" lon="5.40283">
        <ele>967.7</ele>
        <time>2021-05-17T12:07:01Z</time>
      </trkpt>
      <trkpt lat="43.99176" lon="5.4026">
        <ele>968.18</ele>
        <time>2021-05-17T12:07:17Z</time>
      </trkpt>
      <trkpt lat="43.99165" lon="5.40239">
        <ele>969.63</ele>
        <time>2021-05-17T12:07:37Z</time>
      </trkpt>
      <trkpt lat="43.99152" lon="5.40223">
        <ele>970.59</ele>
        <time>2021-05-17T12:07:56Z</time>
      </trkpt>
      <trkpt lat="43.99134" lon="5.40198">
        <ele>972.03</ele>
        <time>2021-05-17T12:08:20Z</time>
      </trkpt>
      <trkpt lat="43.99122" lon="5.40176">
        <ele>973.47</ele>
        <time>2021-05-17T12:08:38Z</time>
      </trkpt>
      <trkpt lat="43.9911" lon="5.40146">
        <ele>973.95</ele>
        <time>2021-05-17T12:09:04Z</time>
      </trkpt>
      <trkpt lat="43.991" lon="5.40125">
        <ele>975.39</ele>
        <time>2021-05-17T12:09:25Z</time>
      </trkpt>
      <trkpt lat="43.99095" lon="5.40104">
        <ele>975.88</ele>
        <time>2021-05-17T12:09:43Z</time>
      </trkpt>
      <trkpt lat="43.9909" lon="5.40078">
        <ele>977.32</ele>
        <time>2021-05-17T12:10:04Z</time>
      </trkpt>
      <trkpt lat="43.99083" lon="5.40049">
        <ele>978.28</ele>
        <time>2021-05-17T12:10:27Z</time>
      </trkpt>
      <trkpt lat="43.99078" lon="5.40019">
        <ele>980.2</ele>
        <time>2021-05-17T12:10:50Z</time>
      </trkpt>
      <trkpt lat="43.99077" lon="5.39991">
        <ele>982.6</ele>
        <time>2021-05-17T12:11:11Z</time>
      </trkpt>
      <trkpt lat="43.99076" lon="5.39973">
        <ele>983.09</ele>
        <time>2021-05-17T12:11:24Z</time>
      </trkpt>
      <trkpt lat="43.99074" lon="5.39958">
        <ele>983.09</ele>
        <time>2021-05-17T12:11:37Z</time>
      </trkpt>
      <trkpt lat="43.99074" lon="5.39928">
        <ele>982.6</ele>
        <time>2021-05-17T12:12:00Z</time>
      </trkpt>
      <trkpt lat="43.99076" lon="5.39912">
        <ele>983.57</ele>
        <time>2021-05-17T12:12:13Z</time>
      </trkpt>
      <trkpt lat="43.99079" lon="5.39881">
        <ele>983.57</ele>
        <time>2021-05-17T12:12:37Z</time>
      </trkpt>
      <trkpt lat="43.99082" lon="5.39848">
        <ele>983.09</ele>
        <time>2021-05-17T12:13:01Z</time>
      </trkpt>
      <trkpt lat="43.99084" lon="5.39811">
        <ele>981.64</ele>
        <time>2021-05-17T12:13:26Z</time>
      </trkpt>
      <trkpt lat="43.99084" lon="5.39786">
        <ele>980.68</ele>
        <time>2021-05-17T12:13:44Z</time>
      </trkpt>
      <trkpt lat="43.99085" lon="5.39754">
        <ele>980.2</ele>
        <time>2021-05-17T12:14:07Z</time>
      </trkpt>
      <trkpt lat="43.99084" lon="5.39722">
        <ele>978.28</ele>
        <time>2021-05-17T12:14:30Z</time>
      </trkpt>
      <trkpt lat="43.9908" lon="5.39691">
        <ele>976.84</ele>
        <time>2021-05-17T12:14:54Z</time>
      </trkpt>
      <trkpt lat="43.99074" lon="5.39673">
        <ele>976.36</ele>
        <time>2021-05-17T12:15:08Z</time>
      </trkpt>
      <trkpt lat="43.99067" lon="5.39668">
        <ele>975.88</ele>
        <time>2021-05-17T12:15:32Z</time>
      </trkpt>
      <trkpt lat="43.99063" lon="5.39663">
        <ele>975.88</ele>
        <time>2021-05-17T12:15:37Z</time>
      </trkpt>
      <trkpt lat="43.99056" lon="5.39653">
        <ele>975.39</ele>
        <time>2021-05-17T12:15:53Z</time>
      </trkpt>
      <trkpt lat="43.99052" lon="5.39651">
        <ele>975.39</ele>
        <time>2021-05-17T12:15:56Z</time>
      </trkpt>
      <trkpt lat="43.99039" lon="5.39645">
        <ele>975.39</ele>
        <time>2021-05-17T12:16:10Z</time>
      </trkpt>
      <trkpt lat="43.99026" lon="5.39633">
        <ele>975.39</ele>
        <time>2021-05-17T12:16:26Z</time>
      </trkpt>
      <trkpt lat="43.9902" lon="5.39623">
        <ele>975.39</ele>
        <time>2021-05-17T12:16:36Z</time>
      </trkpt>
      <trkpt lat="43.99008" lon="5.39604">
        <ele>974.91</ele>
        <time>2021-05-17T12:16:53Z</time>
      </trkpt>
      <trkpt lat="43.98993" lon="5.39582">
        <ele>973.95</ele>
        <time>2021-05-17T12:17:13Z</time>
      </trkpt>
      <trkpt lat="43.9898" lon="5.39561">
        <ele>973.47</ele>
        <time>2021-05-17T12:17:34Z</time>
      </trkpt>
      <trkpt lat="43.98973" lon="5.3955">
        <ele>973.47</ele>
        <time>2021-05-17T12:17:43Z</time>
      </trkpt>
      <trkpt lat="43.98972" lon="5.39549">
        <ele>973.47</ele>
        <time>2021-05-17T12:17:44Z</time>
      </trkpt>
      <trkpt lat="43.98971" lon="5.39548">
        <ele>973.47</ele>
        <time>2021-05-17T12:17:45Z</time>
      </trkpt>
      <trkpt lat="43.98953" lon="5.39526">
        <ele>972.99</ele>
        <time>2021-05-17T12:18:06Z</time>
      </trkpt>
      <trkpt lat="43.9894" lon="5.39508">
        <ele>972.03</ele>
        <time>2021-05-17T12:18:25Z</time>
      </trkpt>
      <trkpt lat="43.98926" lon="5.39493">
        <ele>971.07</ele>
        <time>2021-05-17T12:18:42Z</time>
      </trkpt>
      <trkpt lat="43.98918" lon="5.39471">
        <ele>970.59</ele>
        <time>2021-05-17T12:18:59Z</time>
      </trkpt>
      <trkpt lat="43.98916" lon="5.39467">
        <ele>970.11</ele>
        <time>2021-05-17T12:19:02Z</time>
      </trkpt>
      <trkpt lat="43.98909" lon="5.39449">
        <ele>969.15</ele>
        <time>2021-05-17T12:19:18Z</time>
      </trkpt>
      <trkpt lat="43.98903" lon="5.39435">
        <ele>969.15</ele>
        <time>2021-05-17T12:19:31Z</time>
      </trkpt>
      <trkpt lat="43.98893" lon="5.39412">
        <ele>968.18</ele>
        <time>2021-05-17T12:19:50Z</time>
      </trkpt>
      <trkpt lat="43.98888" lon="5.39393">
        <ele>967.7</ele>
        <time>2021-05-17T12:20:04Z</time>
      </trkpt>
      <trkpt lat="43.98876" lon="5.39373">
        <ele>965.3</ele>
        <time>2021-05-17T12:20:23Z</time>
      </trkpt>
      <trkpt lat="43.98867" lon="5.39348">
        <ele>964.82</ele>
        <time>2021-05-17T12:20:45Z</time>
      </trkpt>
      <trkpt lat="43.98858" lon="5.39329">
        <ele>964.82</ele>
        <time>2021-05-17T12:21:01Z</time>
      </trkpt>
      <trkpt lat="43.98846" lon="5.39308">
        <ele>963.86</ele>
        <time>2021-05-17T12:21:20Z</time>
      </trkpt>
      <trkpt lat="43.98837" lon="5.39282">
        <ele>962.42</ele>
        <time>2021-05-17T12:21:41Z</time>
      </trkpt>
      <trkpt lat="43.98837" lon="5.39277">
        <ele>962.42</ele>
        <time>2021-05-17T12:21:44Z</time>
      </trkpt>
      <trkpt lat="43.98838" lon="5.39254">
        <ele>961.94</ele>
        <time>2021-05-17T12:22:00Z</time>
      </trkpt>
      <trkpt lat="43.98833" lon="5.39233">
        <ele>960.98</ele>
        <time>2021-05-17T12:22:15Z</time>
      </trkpt>
    </trkseg>
  </trk>
</gpx>